<?xml version="1.0" encoding="UTF-8" standalone="no" ?>
<gpx xmlns="http://www.topografix.com/GPX/1/1" xmlns:xsi="http://www.w3.org/2001/XMLSchema-instance" xsi:schemaLocation="http://www.topografix.com/GPX/1/1 http://www.topografix.com/GPX/1/1/gpx.xsd" version="1.1" creator="VisuGPX - https://www.visugpx.com">
  <metadata>
    <name>Landrecies - Provilles</name>
    <desc><![CDATA[On peut faire les 50 !]]></desc>
  </metadata>
  <trk>
    <name><![CDATA[Landrecies - Provilles]]></name>
    <trkseg>
      <trkpt lat="50.1248" lon="3.67812">
        <ele>136.25726318359</ele>
        <time>2020-07-13T08:57:54.000Z</time>
      </trkpt>
      <trkpt lat="50.12476" lon="3.67805">
        <ele>136.3892364502</ele>
        <time>2020-07-13T08:57:54.001Z</time>
      </trkpt>
      <trkpt lat="50.12472" lon="3.67791">
        <ele>136.60520935059</ele>
        <time>2020-07-13T08:57:54.004Z</time>
      </trkpt>
      <trkpt lat="50.12469" lon="3.67758">
        <ele>137.13954162598</ele>
        <time>2020-07-13T08:57:54.010Z</time>
      </trkpt>
      <trkpt lat="50.12466" lon="3.67744">
        <ele>137.30751037598</ele>
        <time>2020-07-13T08:57:54.017Z</time>
      </trkpt>
      <trkpt lat="50.12431" lon="3.67645">
        <ele>137.43473815918</ele>
        <time>2020-07-13T08:57:54.036Z</time>
      </trkpt>
      <trkpt lat="50.12425" lon="3.67635">
        <ele>137.33876037598</ele>
        <time>2020-07-13T08:57:54.057Z</time>
      </trkpt>
      <trkpt lat="50.124" lon="3.67606">
        <ele>136.78684997559</ele>
        <time>2020-07-13T08:57:54.083Z</time>
      </trkpt>
      <trkpt lat="50.12391" lon="3.67594">
        <ele>136.71408081055</ele>
        <time>2020-07-13T08:57:54.110Z</time>
      </trkpt>
      <trkpt lat="50.12373" lon="3.6756">
        <ele>136.88206481934</ele>
        <time>2020-07-13T08:57:54.142Z</time>
      </trkpt>
      <trkpt lat="50.12358" lon="3.67513">
        <ele>137.31187438965</ele>
        <time>2020-07-13T08:57:54.179Z</time>
      </trkpt>
      <trkpt lat="50.12372" lon="3.67472">
        <ele>137.3062286377</ele>
        <time>2020-07-13T08:57:54.221Z</time>
      </trkpt>
      <trkpt lat="50.12375" lon="3.67444">
        <ele>137.0422668457</ele>
        <time>2020-07-13T08:57:54.266Z</time>
      </trkpt>
      <trkpt lat="50.12373" lon="3.67428">
        <ele>136.85171508789</ele>
        <time>2020-07-13T08:57:54.313Z</time>
      </trkpt>
      <trkpt lat="50.12355" lon="3.67387">
        <ele>136.1438293457</ele>
        <time>2020-07-13T08:57:54.365Z</time>
      </trkpt>
      <trkpt lat="50.12309" lon="3.67306">
        <ele>135.74534606934</ele>
        <time>2020-07-13T08:57:54.428Z</time>
      </trkpt>
      <trkpt lat="50.12224" lon="3.67161">
        <ele>137.30233764648</ele>
        <time>2020-07-13T08:57:54.511Z</time>
      </trkpt>
      <trkpt lat="50.12184" lon="3.67096">
        <ele>137.04891967773</ele>
        <time>2020-07-13T08:57:54.603Z</time>
      </trkpt>
      <trkpt lat="50.12124" lon="3.67001">
        <ele>135.11129760742</ele>
        <time>2020-07-13T08:57:54.709Z</time>
      </trkpt>
      <trkpt lat="50.12085" lon="3.66935">
        <ele>134.48550415039</ele>
        <time>2020-07-13T08:57:54.824Z</time>
      </trkpt>
      <trkpt lat="50.11992" lon="3.66777">
        <ele>133.62065124512</ele>
        <time>2020-07-13T08:57:54.961Z</time>
      </trkpt>
      <trkpt lat="50.11903" lon="3.66626">
        <ele>135.8194732666</ele>
        <time>2020-07-13T08:57:55.120Z</time>
      </trkpt>
      <trkpt lat="50.11873" lon="3.66567">
        <ele>137.42915344238</ele>
        <time>2020-07-13T08:57:55.286Z</time>
      </trkpt>
      <trkpt lat="50.1188" lon="3.66554">
        <ele>137.51396179199</ele>
        <time>2020-07-13T08:57:55.454Z</time>
      </trkpt>
      <trkpt lat="50.11916" lon="3.66492">
        <ele>137.39398193359</ele>
        <time>2020-07-13T08:57:55.631Z</time>
      </trkpt>
      <trkpt lat="50.11953" lon="3.66435">
        <ele>137.1900177002</ele>
        <time>2020-07-13T08:57:55.816Z</time>
      </trkpt>
      <trkpt lat="50.11901" lon="3.66343">
        <ele>139.19151306152</ele>
        <time>2020-07-13T08:57:56.014Z</time>
      </trkpt>
      <trkpt lat="50.1184" lon="3.66231">
        <ele>139.76121520996</ele>
        <time>2020-07-13T08:57:56.227Z</time>
      </trkpt>
      <trkpt lat="50.11825" lon="3.66188">
        <ele>140.14515686035</ele>
        <time>2020-07-13T08:57:56.445Z</time>
      </trkpt>
      <trkpt lat="50.118" lon="3.66042">
        <ele>140.69703674316</ele>
        <time>2020-07-13T08:57:56.678Z</time>
      </trkpt>
      <trkpt lat="50.11791" lon="3.65973">
        <ele>141.03224182129</ele>
        <time>2020-07-13T08:57:56.919Z</time>
      </trkpt>
      <trkpt lat="50.1179" lon="3.65937">
        <ele>141.04423522949</ele>
        <time>2020-07-13T08:57:57.163Z</time>
      </trkpt>
      <trkpt lat="50.11801" lon="3.65737">
        <ele>140.17547607422</ele>
        <time>2020-07-13T08:57:57.428Z</time>
      </trkpt>
      <trkpt lat="50.11809" lon="3.65686">
        <ele>140.36744689941</ele>
        <time>2020-07-13T08:57:57.698Z</time>
      </trkpt>
      <trkpt lat="50.11836" lon="3.65562">
        <ele>140.01533508301</ele>
        <time>2020-07-13T08:57:57.982Z</time>
      </trkpt>
      <trkpt lat="50.1186" lon="3.65468">
        <ele>138.5657043457</ele>
        <time>2020-07-13T08:57:58.276Z</time>
      </trkpt>
      <trkpt lat="50.11875" lon="3.6543">
        <ele>137.9047088623</ele>
        <time>2020-07-13T08:57:58.575Z</time>
      </trkpt>
      <trkpt lat="50.11909" lon="3.65351">
        <ele>136.21423339844</ele>
        <time>2020-07-13T08:57:58.884Z</time>
      </trkpt>
      <trkpt lat="50.11953" lon="3.65253">
        <ele>135.91143798828</ele>
        <time>2020-07-13T08:57:59.205Z</time>
      </trkpt>
      <trkpt lat="50.11964" lon="3.65211">
        <ele>136.04341125488</ele>
        <time>2020-07-13T08:57:59.531Z</time>
      </trkpt>
      <trkpt lat="50.11963" lon="3.65196">
        <ele>136.03141784668</ele>
        <time>2020-07-13T08:57:59.858Z</time>
      </trkpt>
      <trkpt lat="50.11964" lon="3.6516">
        <ele>136.08682250977</ele>
        <time>2020-07-13T08:58:00.189Z</time>
      </trkpt>
      <trkpt lat="50.1196" lon="3.65128">
        <ele>136.00457763672</ele>
        <time>2020-07-13T08:58:00.523Z</time>
      </trkpt>
      <trkpt lat="50.11952" lon="3.65097">
        <ele>136.16677856445</ele>
        <time>2020-07-13T08:58:00.861Z</time>
      </trkpt>
      <trkpt lat="50.11941" lon="3.6507">
        <ele>136.46508789062</ele>
        <time>2020-07-13T08:58:01.202Z</time>
      </trkpt>
      <trkpt lat="50.11932" lon="3.65053">
        <ele>136.68104553223</ele>
        <time>2020-07-13T08:58:01.545Z</time>
      </trkpt>
      <trkpt lat="50.1193" lon="3.6505">
        <ele>136.72903442383</ele>
        <time>2020-07-13T08:58:01.889Z</time>
      </trkpt>
      <trkpt lat="50.11919" lon="3.65038">
        <ele>136.99299621582</ele>
        <time>2020-07-13T08:58:02.235Z</time>
      </trkpt>
      <trkpt lat="50.11786" lon="3.64917">
        <ele>137.73785400391</ele>
        <time>2020-07-13T08:58:02.606Z</time>
      </trkpt>
      <trkpt lat="50.1175" lon="3.64883">
        <ele>141.19328308105</ele>
        <time>2020-07-13T08:58:02.983Z</time>
      </trkpt>
      <trkpt lat="50.11748" lon="3.64879">
        <ele>141.38525390625</ele>
        <time>2020-07-13T08:58:03.361Z</time>
      </trkpt>
      <trkpt lat="50.11738" lon="3.6486">
        <ele>142.34509277344</ele>
        <time>2020-07-13T08:58:03.741Z</time>
      </trkpt>
      <trkpt lat="50.11733" lon="3.64844">
        <ele>143.23184204102</ele>
        <time>2020-07-13T08:58:04.123Z</time>
      </trkpt>
      <trkpt lat="50.11729" lon="3.64826">
        <ele>144.4796295166</ele>
        <time>2020-07-13T08:58:04.507Z</time>
      </trkpt>
      <trkpt lat="50.11723" lon="3.64762">
        <ele>147.73770141602</ele>
        <time>2020-07-13T08:58:04.898Z</time>
      </trkpt>
      <trkpt lat="50.11706" lon="3.64514">
        <ele>153.95690917969</ele>
        <time>2020-07-13T08:58:05.314Z</time>
      </trkpt>
      <trkpt lat="50.11651" lon="3.63775">
        <ele>155.07972717285</ele>
        <time>2020-07-13T08:58:05.807Z</time>
      </trkpt>
      <trkpt lat="50.11627" lon="3.63474">
        <ele>153.53930664062</ele>
        <time>2020-07-13T08:58:06.331Z</time>
      </trkpt>
      <trkpt lat="50.11586" lon="3.62949">
        <ele>160.50816345215</ele>
        <time>2020-07-13T08:58:06.910Z</time>
      </trkpt>
      <trkpt lat="50.11558" lon="3.62586">
        <ele>157.15126037598</ele>
        <time>2020-07-13T08:58:07.526Z</time>
      </trkpt>
      <trkpt lat="50.11544" lon="3.62389">
        <ele>158.55679321289</ele>
        <time>2020-07-13T08:58:08.163Z</time>
      </trkpt>
      <trkpt lat="50.1152" lon="3.6209">
        <ele>159.73039245605</ele>
        <time>2020-07-13T08:58:08.831Z</time>
      </trkpt>
      <trkpt lat="50.11459" lon="3.61285">
        <ele>157.78701782227</ele>
        <time>2020-07-13T08:58:09.582Z</time>
      </trkpt>
      <trkpt lat="50.11424" lon="3.60825">
        <ele>164.93629455566</ele>
        <time>2020-07-13T08:58:10.381Z</time>
      </trkpt>
      <trkpt lat="50.1139" lon="3.60407">
        <ele>159.28939819336</ele>
        <time>2020-07-13T08:58:11.223Z</time>
      </trkpt>
      <trkpt lat="50.11373" lon="3.60227">
        <ele>152.01409912109</ele>
        <time>2020-07-13T08:58:12.084Z</time>
      </trkpt>
      <trkpt lat="50.11351" lon="3.60081">
        <ele>149.87091064453</ele>
        <time>2020-07-13T08:58:12.961Z</time>
      </trkpt>
      <trkpt lat="50.11322" lon="3.5989">
        <ele>149.11950683594</ele>
        <time>2020-07-13T08:58:13.858Z</time>
      </trkpt>
      <trkpt lat="50.11304" lon="3.59797">
        <ele>147.03315734863</ele>
        <time>2020-07-13T08:58:14.765Z</time>
      </trkpt>
      <trkpt lat="50.1127" lon="3.59657">
        <ele>143.32933044434</ele>
        <time>2020-07-13T08:58:15.687Z</time>
      </trkpt>
      <trkpt lat="50.11252" lon="3.59586">
        <ele>141.81280517578</ele>
        <time>2020-07-13T08:58:16.617Z</time>
      </trkpt>
      <trkpt lat="50.11228" lon="3.59515">
        <ele>140.787109375</ele>
        <time>2020-07-13T08:58:17.555Z</time>
      </trkpt>
      <trkpt lat="50.11203" lon="3.59457">
        <ele>141.17413330078</ele>
        <time>2020-07-13T08:58:18.501Z</time>
      </trkpt>
      <trkpt lat="50.11165" lon="3.59376">
        <ele>142.08598327637</ele>
        <time>2020-07-13T08:58:19.457Z</time>
      </trkpt>
      <trkpt lat="50.11146" lon="3.59315">
        <ele>142.54190063477</ele>
        <time>2020-07-13T08:58:20.420Z</time>
      </trkpt>
      <trkpt lat="50.1113" lon="3.5922">
        <ele>142.88876342773</ele>
        <time>2020-07-13T08:58:21.393Z</time>
      </trkpt>
      <trkpt lat="50.11085" lon="3.58905">
        <ele>139.1506652832</ele>
        <time>2020-07-13T08:58:22.399Z</time>
      </trkpt>
      <trkpt lat="50.11073" lon="3.58803">
        <ele>136.84234619141</ele>
        <time>2020-07-13T08:58:23.416Z</time>
      </trkpt>
      <trkpt lat="50.11045" lon="3.58533">
        <ele>130.35781860352</ele>
        <time>2020-07-13T08:58:24.461Z</time>
      </trkpt>
      <trkpt lat="50.11043" lon="3.58463">
        <ele>128.01715087891</ele>
        <time>2020-07-13T08:58:25.513Z</time>
      </trkpt>
      <trkpt lat="50.11045" lon="3.58371">
        <ele>124.68846130371</ele>
        <time>2020-07-13T08:58:26.575Z</time>
      </trkpt>
      <trkpt lat="50.11045" lon="3.58275">
        <ele>121.23303222656</ele>
        <time>2020-07-13T08:58:27.647Z</time>
      </trkpt>
      <trkpt lat="50.11041" lon="3.58233">
        <ele>119.70779418945</ele>
        <time>2020-07-13T08:58:28.723Z</time>
      </trkpt>
      <trkpt lat="50.11035" lon="3.58199">
        <ele>118.41201019287</ele>
        <time>2020-07-13T08:58:29.803Z</time>
      </trkpt>
      <trkpt lat="50.1102" lon="3.58135">
        <ele>115.04943084717</ele>
        <time>2020-07-13T08:58:30.890Z</time>
      </trkpt>
      <trkpt lat="50.11" lon="3.58051">
        <ele>110.53818511963</ele>
        <time>2020-07-13T08:58:31.986Z</time>
      </trkpt>
      <trkpt lat="50.10993" lon="3.58007">
        <ele>108.52263641357</ele>
        <time>2020-07-13T08:58:33.087Z</time>
      </trkpt>
      <trkpt lat="50.10992" lon="3.57974">
        <ele>107.70677185059</ele>
        <time>2020-07-13T08:58:34.191Z</time>
      </trkpt>
      <trkpt lat="50.10995" lon="3.57877">
        <ele>104.50732421875</ele>
        <time>2020-07-13T08:58:35.305Z</time>
      </trkpt>
      <trkpt lat="50.11002" lon="3.57698">
        <ele>104.99465942383</ele>
        <time>2020-07-13T08:58:36.438Z</time>
      </trkpt>
      <trkpt lat="50.11" lon="3.57647">
        <ele>105.54196166992</ele>
        <time>2020-07-13T08:58:37.576Z</time>
      </trkpt>
      <trkpt lat="50.10992" lon="3.57588">
        <ele>107.01512908936</ele>
        <time>2020-07-13T08:58:38.720Z</time>
      </trkpt>
      <trkpt lat="50.10975" lon="3.57522">
        <ele>108.41889953613</ele>
        <time>2020-07-13T08:58:39.871Z</time>
      </trkpt>
      <trkpt lat="50.10963" lon="3.57488">
        <ele>109.97675323486</ele>
        <time>2020-07-13T08:58:41.026Z</time>
      </trkpt>
      <trkpt lat="50.10945" lon="3.57448">
        <ele>112.24695587158</ele>
        <time>2020-07-13T08:58:42.186Z</time>
      </trkpt>
      <trkpt lat="50.1089" lon="3.57356">
        <ele>116.41278839111</ele>
        <time>2020-07-13T08:58:43.359Z</time>
      </trkpt>
      <trkpt lat="50.10858" lon="3.5731">
        <ele>119.16305541992</ele>
        <time>2020-07-13T08:58:44.539Z</time>
      </trkpt>
      <trkpt lat="50.10841" lon="3.57287">
        <ele>120.6028137207</ele>
        <time>2020-07-13T08:58:45.723Z</time>
      </trkpt>
      <trkpt lat="50.10768" lon="3.57211">
        <ele>124.60103607178</ele>
        <time>2020-07-13T08:58:46.921Z</time>
      </trkpt>
      <trkpt lat="50.10701" lon="3.57136">
        <ele>127.91248321533</ele>
        <time>2020-07-13T08:58:48.132Z</time>
      </trkpt>
      <trkpt lat="50.10661" lon="3.5709">
        <ele>129.7699432373</ele>
        <time>2020-07-13T08:58:49.351Z</time>
      </trkpt>
      <trkpt lat="50.10642" lon="3.57063">
        <ele>130.4538269043</ele>
        <time>2020-07-13T08:58:50.574Z</time>
      </trkpt>
      <trkpt lat="50.10631" lon="3.57042">
        <ele>130.84976196289</ele>
        <time>2020-07-13T08:58:51.800Z</time>
      </trkpt>
      <trkpt lat="50.10618" lon="3.57014">
        <ele>131.30389404297</ele>
        <time>2020-07-13T08:58:53.030Z</time>
      </trkpt>
      <trkpt lat="50.10603" lon="3.56973">
        <ele>132.64767456055</ele>
        <time>2020-07-13T08:58:54.264Z</time>
      </trkpt>
      <trkpt lat="50.10577" lon="3.56895">
        <ele>134.66944885254</ele>
        <time>2020-07-13T08:58:55.508Z</time>
      </trkpt>
      <trkpt lat="50.1057" lon="3.56877">
        <ele>135.05337524414</ele>
        <time>2020-07-13T08:58:56.754Z</time>
      </trkpt>
      <trkpt lat="50.10552" lon="3.56841">
        <ele>135.55212402344</ele>
        <time>2020-07-13T08:58:58.004Z</time>
      </trkpt>
      <trkpt lat="50.10492" lon="3.5673">
        <ele>135.85293579102</ele>
        <time>2020-07-13T08:58:59.269Z</time>
      </trkpt>
      <trkpt lat="50.10476" lon="3.56697">
        <ele>136.38903808594</ele>
        <time>2020-07-13T08:59:00.539Z</time>
      </trkpt>
      <trkpt lat="50.10452" lon="3.56638">
        <ele>136.83296203613</ele>
        <time>2020-07-13T08:59:01.816Z</time>
      </trkpt>
      <trkpt lat="50.10414" lon="3.56541">
        <ele>137.66046142578</ele>
        <time>2020-07-13T08:59:03.104Z</time>
      </trkpt>
      <trkpt lat="50.10404" lon="3.56501">
        <ele>137.81938171387</ele>
        <time>2020-07-13T08:59:04.397Z</time>
      </trkpt>
      <trkpt lat="50.10381" lon="3.56358">
        <ele>137.8988494873</ele>
        <time>2020-07-13T08:59:05.705Z</time>
      </trkpt>
      <trkpt lat="50.10371" lon="3.56299">
        <ele>139.24923706055</ele>
        <time>2020-07-13T08:59:07.019Z</time>
      </trkpt>
      <trkpt lat="50.10366" lon="3.56248">
        <ele>140.10713195801</ele>
        <time>2020-07-13T08:59:08.339Z</time>
      </trkpt>
      <trkpt lat="50.10368" lon="3.56244">
        <ele>140.17910766602</ele>
        <time>2020-07-13T08:59:09.659Z</time>
      </trkpt>
      <trkpt lat="50.10371" lon="3.56232">
        <ele>140.35908508301</ele>
        <time>2020-07-13T08:59:10.981Z</time>
      </trkpt>
      <trkpt lat="50.10369" lon="3.56218">
        <ele>140.5030670166</ele>
        <time>2020-07-13T08:59:12.304Z</time>
      </trkpt>
      <trkpt lat="50.10363" lon="3.5621">
        <ele>140.52705383301</ele>
        <time>2020-07-13T08:59:13.628Z</time>
      </trkpt>
      <trkpt lat="50.10356" lon="3.56207">
        <ele>140.47906494141</ele>
        <time>2020-07-13T08:59:14.953Z</time>
      </trkpt>
      <trkpt lat="50.10348" lon="3.56192">
        <ele>140.56304931641</ele>
        <time>2020-07-13T08:59:16.280Z</time>
      </trkpt>
      <trkpt lat="50.10339" lon="3.56169">
        <ele>140.54666137695</ele>
        <time>2020-07-13T08:59:17.610Z</time>
      </trkpt>
      <trkpt lat="50.10325" lon="3.56124">
        <ele>140.37869262695</ele>
        <time>2020-07-13T08:59:18.945Z</time>
      </trkpt>
      <trkpt lat="50.1026" lon="3.55894">
        <ele>137.71382141113</ele>
        <time>2020-07-13T08:59:20.306Z</time>
      </trkpt>
      <trkpt lat="50.10207" lon="3.55706">
        <ele>133.2234954834</ele>
        <time>2020-07-13T08:59:21.688Z</time>
      </trkpt>
      <trkpt lat="50.10187" lon="3.5564">
        <ele>131.12905883789</ele>
        <time>2020-07-13T08:59:23.078Z</time>
      </trkpt>
      <trkpt lat="50.10183" lon="3.55634">
        <ele>130.8650970459</ele>
        <time>2020-07-13T08:59:24.469Z</time>
      </trkpt>
      <trkpt lat="50.10195" lon="3.55595">
        <ele>129.67652893066</ele>
        <time>2020-07-13T08:59:25.864Z</time>
      </trkpt>
      <trkpt lat="50.10216" lon="3.55523">
        <ele>128.12986755371</ele>
        <time>2020-07-13T08:59:27.267Z</time>
      </trkpt>
      <trkpt lat="50.10229" lon="3.55476">
        <ele>126.00409698486</ele>
        <time>2020-07-13T08:59:28.676Z</time>
      </trkpt>
      <trkpt lat="50.1023" lon="3.55462">
        <ele>125.33221435547</ele>
        <time>2020-07-13T08:59:30.086Z</time>
      </trkpt>
      <trkpt lat="50.10245" lon="3.55413">
        <ele>122.56175231934</ele>
        <time>2020-07-13T08:59:31.502Z</time>
      </trkpt>
      <trkpt lat="50.10299" lon="3.55236">
        <ele>115.50997161865</ele>
        <time>2020-07-13T08:59:32.938Z</time>
      </trkpt>
      <trkpt lat="50.10307" lon="3.55218">
        <ele>115.46198272705</ele>
        <time>2020-07-13T08:59:34.376Z</time>
      </trkpt>
      <trkpt lat="50.10302" lon="3.55217">
        <ele>115.19802856445</ele>
        <time>2020-07-13T08:59:35.815Z</time>
      </trkpt>
      <trkpt lat="50.10299" lon="3.55236">
        <ele>115.50997161865</ele>
        <time>2020-07-13T08:59:37.256Z</time>
      </trkpt>
      <trkpt lat="50.10307" lon="3.55218">
        <ele>115.46198272705</ele>
        <time>2020-07-13T08:59:38.699Z</time>
      </trkpt>
      <trkpt lat="50.1032" lon="3.55171">
        <ele>113.68327331543</ele>
        <time>2020-07-13T08:59:40.147Z</time>
      </trkpt>
      <trkpt lat="50.10329" lon="3.55122">
        <ele>112.16156768799</ele>
        <time>2020-07-13T08:59:41.601Z</time>
      </trkpt>
      <trkpt lat="50.1033" lon="3.55108">
        <ele>111.4656829834</ele>
        <time>2020-07-13T08:59:43.056Z</time>
      </trkpt>
      <trkpt lat="50.10333" lon="3.55078">
        <ele>110.50229644775</ele>
        <time>2020-07-13T08:59:44.514Z</time>
      </trkpt>
      <trkpt lat="50.10354" lon="3.54936">
        <ele>108.79800415039</ele>
        <time>2020-07-13T08:59:45.987Z</time>
      </trkpt>
      <trkpt lat="50.10364" lon="3.54863">
        <ele>109.31391906738</ele>
        <time>2020-07-13T08:59:47.468Z</time>
      </trkpt>
      <trkpt lat="50.10374" lon="3.54822">
        <ele>110.10382080078</ele>
        <time>2020-07-13T08:59:48.954Z</time>
      </trkpt>
      <trkpt lat="50.10432" lon="3.54615">
        <ele>112.33355712891</ele>
        <time>2020-07-13T08:59:50.463Z</time>
      </trkpt>
      <trkpt lat="50.10441" lon="3.54577">
        <ele>112.51471710205</ele>
        <time>2020-07-13T08:59:51.976Z</time>
      </trkpt>
      <trkpt lat="50.1045" lon="3.54559">
        <ele>112.62270355225</ele>
        <time>2020-07-13T08:59:53.491Z</time>
      </trkpt>
      <trkpt lat="50.10488" lon="3.54502">
        <ele>110.62376403809</ele>
        <time>2020-07-13T08:59:55.015Z</time>
      </trkpt>
      <trkpt lat="50.10527" lon="3.54435">
        <ele>106.99967956543</ele>
        <time>2020-07-13T08:59:56.548Z</time>
      </trkpt>
      <trkpt lat="50.1053" lon="3.54428">
        <ele>106.66284179688</ele>
        <time>2020-07-13T08:59:58.082Z</time>
      </trkpt>
      <trkpt lat="50.10531" lon="3.54422">
        <ele>106.45887756348</ele>
        <time>2020-07-13T08:59:59.617Z</time>
      </trkpt>
      <trkpt lat="50.10538" lon="3.54413">
        <ele>106.19721221924</ele>
        <time>2020-07-13T09:00:01.153Z</time>
      </trkpt>
      <trkpt lat="50.10552" lon="3.54389">
        <ele>105.48882293701</ele>
        <time>2020-07-13T09:00:02.692Z</time>
      </trkpt>
      <trkpt lat="50.10574" lon="3.54355">
        <ele>104.16904449463</ele>
        <time>2020-07-13T09:00:04.236Z</time>
      </trkpt>
      <trkpt lat="50.1059" lon="3.54336">
        <ele>102.67911529541</ele>
        <time>2020-07-13T09:00:05.784Z</time>
      </trkpt>
      <trkpt lat="50.10618" lon="3.54316">
        <ele>100.59027862549</ele>
        <time>2020-07-13T09:00:07.337Z</time>
      </trkpt>
      <trkpt lat="50.10667" lon="3.54271">
        <ele>96.54653930664</ele>
        <time>2020-07-13T09:00:08.899Z</time>
      </trkpt>
      <trkpt lat="50.10705" lon="3.54235">
        <ele>94.18621063232</ele>
        <time>2020-07-13T09:00:10.468Z</time>
      </trkpt>
      <trkpt lat="50.10735" lon="3.54203">
        <ele>92.87882232666</ele>
        <time>2020-07-13T09:00:12.043Z</time>
      </trkpt>
      <trkpt lat="50.10738" lon="3.54199">
        <ele>92.81883239746</ele>
        <time>2020-07-13T09:00:13.618Z</time>
      </trkpt>
      <trkpt lat="50.10737" lon="3.54194">
        <ele>92.91481781006</ele>
        <time>2020-07-13T09:00:15.194Z</time>
      </trkpt>
      <trkpt lat="50.10726" lon="3.5419">
        <ele>93.35874176025</ele>
        <time>2020-07-13T09:00:16.772Z</time>
      </trkpt>
      <trkpt lat="50.10685" lon="3.54185">
        <ele>94.90608978271</ele>
        <time>2020-07-13T09:00:18.356Z</time>
      </trkpt>
      <trkpt lat="50.10597" lon="3.54163">
        <ele>97.31651306152</ele>
        <time>2020-07-13T09:00:19.954Z</time>
      </trkpt>
      <trkpt lat="50.10584" lon="3.54159">
        <ele>97.64046478271</ele>
        <time>2020-07-13T09:00:21.555Z</time>
      </trkpt>
      <trkpt lat="50.10574" lon="3.54152">
        <ele>97.74844360352</ele>
        <time>2020-07-13T09:00:23.157Z</time>
      </trkpt>
      <trkpt lat="50.1058" lon="3.54133">
        <ele>96.94953155518</ele>
        <time>2020-07-13T09:00:24.761Z</time>
      </trkpt>
      <trkpt lat="50.10629" lon="3.53965">
        <ele>95.92175292969</ele>
        <time>2020-07-13T09:00:26.384Z</time>
      </trkpt>
      <trkpt lat="50.10655" lon="3.5388">
        <ele>95.6619720459</ele>
        <time>2020-07-13T09:00:28.017Z</time>
      </trkpt>
      <trkpt lat="50.10661" lon="3.5383">
        <ele>97.15306854248</ele>
        <time>2020-07-13T09:00:29.655Z</time>
      </trkpt>
      <trkpt lat="50.10661" lon="3.53792">
        <ele>98.74809265137</ele>
        <time>2020-07-13T09:00:31.297Z</time>
      </trkpt>
      <trkpt lat="50.10642" lon="3.5366">
        <ele>103.87759399414</ele>
        <time>2020-07-13T09:00:32.953Z</time>
      </trkpt>
      <trkpt lat="50.10638" lon="3.5362">
        <ele>105.60530853271</ele>
        <time>2020-07-13T09:00:34.613Z</time>
      </trkpt>
      <trkpt lat="50.10635" lon="3.53584">
        <ele>107.287109375</ele>
        <time>2020-07-13T09:00:36.277Z</time>
      </trkpt>
      <trkpt lat="50.10625" lon="3.53525">
        <ele>109.56256103516</ele>
        <time>2020-07-13T09:00:37.947Z</time>
      </trkpt>
      <trkpt lat="50.10615" lon="3.53461">
        <ele>112.13221740723</ele>
        <time>2020-07-13T09:00:39.624Z</time>
      </trkpt>
      <trkpt lat="50.10601" lon="3.53334">
        <ele>117.64283752441</ele>
        <time>2020-07-13T09:00:41.315Z</time>
      </trkpt>
      <trkpt lat="50.10599" lon="3.53268">
        <ele>120.30396270752</ele>
        <time>2020-07-13T09:00:43.012Z</time>
      </trkpt>
      <trkpt lat="50.106" lon="3.53201">
        <ele>123.38327789307</ele>
        <time>2020-07-13T09:00:44.716Z</time>
      </trkpt>
      <trkpt lat="50.10606" lon="3.53134">
        <ele>124.84816741943</ele>
        <time>2020-07-13T09:00:46.427Z</time>
      </trkpt>
      <trkpt lat="50.10616" lon="3.53051">
        <ele>125.25978851318</ele>
        <time>2020-07-13T09:00:48.147Z</time>
      </trkpt>
      <trkpt lat="50.10633" lon="3.52972">
        <ele>127.46416473389</ele>
        <time>2020-07-13T09:00:49.875Z</time>
      </trkpt>
      <trkpt lat="50.10697" lon="3.52703">
        <ele>133.15805053711</ele>
        <time>2020-07-13T09:00:51.633Z</time>
      </trkpt>
      <trkpt lat="50.10754" lon="3.52467">
        <ele>124.74642181396</ele>
        <time>2020-07-13T09:00:53.417Z</time>
      </trkpt>
      <trkpt lat="50.10773" lon="3.52398">
        <ele>122.81739044189</ele>
        <time>2020-07-13T09:00:55.209Z</time>
      </trkpt>
      <trkpt lat="50.10783" lon="3.52353">
        <ele>122.15749359131</ele>
        <time>2020-07-13T09:00:57.006Z</time>
      </trkpt>
      <trkpt lat="50.10795" lon="3.52317">
        <ele>121.96450042725</ele>
        <time>2020-07-13T09:00:58.807Z</time>
      </trkpt>
      <trkpt lat="50.10798" lon="3.52317">
        <ele>121.89251708984</ele>
        <time>2020-07-13T09:01:00.608Z</time>
      </trkpt>
      <trkpt lat="50.10802" lon="3.52317">
        <ele>121.79653167725</ele>
        <time>2020-07-13T09:01:02.410Z</time>
      </trkpt>
      <trkpt lat="50.10811" lon="3.52309">
        <ele>121.58056640625</ele>
        <time>2020-07-13T09:01:04.214Z</time>
      </trkpt>
      <trkpt lat="50.10815" lon="3.52296">
        <ele>121.48458099365</ele>
        <time>2020-07-13T09:01:06.019Z</time>
      </trkpt>
      <trkpt lat="50.10814" lon="3.52281">
        <ele>121.66516876221</ele>
        <time>2020-07-13T09:01:07.826Z</time>
      </trkpt>
      <trkpt lat="50.10807" lon="3.5227">
        <ele>121.9291305542</ele>
        <time>2020-07-13T09:01:09.634Z</time>
      </trkpt>
      <trkpt lat="50.10803" lon="3.52267">
        <ele>122</ele>
        <time>2020-07-13T09:01:11.443Z</time>
      </trkpt>
      <trkpt lat="50.10798" lon="3.52266">
        <ele>122</ele>
        <time>2020-07-13T09:01:13.253Z</time>
      </trkpt>
      <trkpt lat="50.10792" lon="3.52268">
        <ele>122.01824188232</ele>
        <time>2020-07-13T09:01:15.064Z</time>
      </trkpt>
      <trkpt lat="50.10766" lon="3.52223">
        <ele>122.33019256592</ele>
        <time>2020-07-13T09:01:16.881Z</time>
      </trkpt>
      <trkpt lat="50.10761" lon="3.52217">
        <ele>122.39018249512</ele>
        <time>2020-07-13T09:01:18.699Z</time>
      </trkpt>
      <trkpt lat="50.10736" lon="3.52175">
        <ele>122.7945098877</ele>
        <time>2020-07-13T09:01:20.523Z</time>
      </trkpt>
      <trkpt lat="50.10648" lon="3.52026">
        <ele>126.38398742676</ele>
        <time>2020-07-13T09:01:22.368Z</time>
      </trkpt>
      <trkpt lat="50.10532" lon="3.51827">
        <ele>131.27967834473</ele>
        <time>2020-07-13T09:01:24.240Z</time>
      </trkpt>
      <trkpt lat="50.10394" lon="3.51593">
        <ele>131.70686340332</ele>
        <time>2020-07-13T09:01:26.145Z</time>
      </trkpt>
      <trkpt lat="50.10229" lon="3.51318">
        <ele>131.15977478027</ele>
        <time>2020-07-13T09:01:28.089Z</time>
      </trkpt>
      <trkpt lat="50.10095" lon="3.51091">
        <ele>134.76170349121</ele>
        <time>2020-07-13T09:01:30.065Z</time>
      </trkpt>
      <trkpt lat="50.09884" lon="3.50737">
        <ele>134.62020874023</ele>
        <time>2020-07-13T09:01:32.090Z</time>
      </trkpt>
      <trkpt lat="50.09707" lon="3.50436">
        <ele>138.93281555176</ele>
        <time>2020-07-13T09:01:34.157Z</time>
      </trkpt>
      <trkpt lat="50.09494" lon="3.50078">
        <ele>136.89758300781</ele>
        <time>2020-07-13T09:01:36.275Z</time>
      </trkpt>
      <trkpt lat="50.09194" lon="3.49573">
        <ele>140.80894470215</ele>
        <time>2020-07-13T09:01:38.463Z</time>
      </trkpt>
      <trkpt lat="50.09113" lon="3.49433">
        <ele>137.83711242676</ele>
        <time>2020-07-13T09:01:40.671Z</time>
      </trkpt>
      <trkpt lat="50.09037" lon="3.49307">
        <ele>137.14947509766</ele>
        <time>2020-07-13T09:01:42.897Z</time>
      </trkpt>
      <trkpt lat="50.08862" lon="3.49018">
        <ele>138.54109191895</ele>
        <time>2020-07-13T09:01:45.163Z</time>
      </trkpt>
      <trkpt lat="50.08765" lon="3.48855">
        <ele>136.78633117676</ele>
        <time>2020-07-13T09:01:47.452Z</time>
      </trkpt>
      <trkpt lat="50.08726" lon="3.48793">
        <ele>136.19389343262</ele>
        <time>2020-07-13T09:01:49.750Z</time>
      </trkpt>
      <trkpt lat="50.08702" lon="3.48749">
        <ele>136.37626647949</ele>
        <time>2020-07-13T09:01:52.054Z</time>
      </trkpt>
      <trkpt lat="50.08679" lon="3.48709">
        <ele>137.48007202148</ele>
        <time>2020-07-13T09:01:54.364Z</time>
      </trkpt>
      <trkpt lat="50.08656" lon="3.48667">
        <ele>138.39053344727</ele>
        <time>2020-07-13T09:01:56.679Z</time>
      </trkpt>
      <trkpt lat="50.0862" lon="3.48615">
        <ele>139.49435424805</ele>
        <time>2020-07-13T09:01:59.002Z</time>
      </trkpt>
      <trkpt lat="50.08607" lon="3.48598">
        <ele>139.93550109863</ele>
        <time>2020-07-13T09:02:01.328Z</time>
      </trkpt>
      <trkpt lat="50.08582" lon="3.48556">
        <ele>141.13529968262</ele>
        <time>2020-07-13T09:02:03.660Z</time>
      </trkpt>
      <trkpt lat="50.08571" lon="3.48537">
        <ele>141.57591247559</ele>
        <time>2020-07-13T09:02:05.995Z</time>
      </trkpt>
      <trkpt lat="50.08519" lon="3.48447">
        <ele>142.2032623291</ele>
        <time>2020-07-13T09:02:08.342Z</time>
      </trkpt>
      <trkpt lat="50.08493" lon="3.48405">
        <ele>142.46810913086</ele>
        <time>2020-07-13T09:02:10.695Z</time>
      </trkpt>
      <trkpt lat="50.08457" lon="3.48338">
        <ele>142.78575134277</ele>
        <time>2020-07-13T09:02:13.057Z</time>
      </trkpt>
      <trkpt lat="50.08417" lon="3.48266">
        <ele>142.01332092285</ele>
        <time>2020-07-13T09:02:15.429Z</time>
      </trkpt>
      <trkpt lat="50.08394" lon="3.48225">
        <ele>141.08947753906</ele>
        <time>2020-07-13T09:02:17.806Z</time>
      </trkpt>
      <trkpt lat="50.08357" lon="3.48165">
        <ele>139.56729125977</ele>
        <time>2020-07-13T09:02:20.192Z</time>
      </trkpt>
      <trkpt lat="50.08343" lon="3.4814">
        <ele>138.85243225098</ele>
        <time>2020-07-13T09:02:22.581Z</time>
      </trkpt>
      <trkpt lat="50.08332" lon="3.48118">
        <ele>138.19253540039</ele>
        <time>2020-07-13T09:02:24.973Z</time>
      </trkpt>
      <trkpt lat="50.08335" lon="3.48102">
        <ele>137.5806427002</ele>
        <time>2020-07-13T09:02:27.367Z</time>
      </trkpt>
      <trkpt lat="50.08339" lon="3.48085">
        <ele>137.0969543457</ele>
        <time>2020-07-13T09:02:29.763Z</time>
      </trkpt>
      <trkpt lat="50.08345" lon="3.48074">
        <ele>136.76100158691</ele>
        <time>2020-07-13T09:02:32.160Z</time>
      </trkpt>
      <trkpt lat="50.08349" lon="3.48071">
        <ele>136.64102172852</ele>
        <time>2020-07-13T09:02:34.558Z</time>
      </trkpt>
      <trkpt lat="50.08364" lon="3.48066">
        <ele>136.34107971191</ele>
        <time>2020-07-13T09:02:36.959Z</time>
      </trkpt>
      <trkpt lat="50.08375" lon="3.48066">
        <ele>136.20909118652</ele>
        <time>2020-07-13T09:02:39.361Z</time>
      </trkpt>
      <trkpt lat="50.0839" lon="3.48065">
        <ele>136.00512695312</ele>
        <time>2020-07-13T09:02:41.766Z</time>
      </trkpt>
      <trkpt lat="50.08402" lon="3.48058">
        <ele>135.69317626953</ele>
        <time>2020-07-13T09:02:44.173Z</time>
      </trkpt>
      <trkpt lat="50.08407" lon="3.48051">
        <ele>135.46522521973</ele>
        <time>2020-07-13T09:02:46.581Z</time>
      </trkpt>
      <trkpt lat="50.08428" lon="3.48">
        <ele>132.9789276123</ele>
        <time>2020-07-13T09:02:48.995Z</time>
      </trkpt>
      <trkpt lat="50.08462" lon="3.47912">
        <ele>127.93977355957</ele>
        <time>2020-07-13T09:02:51.420Z</time>
      </trkpt>
      <trkpt lat="50.08468" lon="3.47892">
        <ele>126.83596038818</ele>
        <time>2020-07-13T09:02:53.847Z</time>
      </trkpt>
      <trkpt lat="50.08474" lon="3.47865">
        <ele>125.39619445801</ele>
        <time>2020-07-13T09:02:56.277Z</time>
      </trkpt>
      <trkpt lat="50.08479" lon="3.47832">
        <ele>124.34623718262</ele>
        <time>2020-07-13T09:02:58.710Z</time>
      </trkpt>
      <trkpt lat="50.08486" lon="3.47752">
        <ele>122.82846832275</ele>
        <time>2020-07-13T09:03:01.152Z</time>
      </trkpt>
      <trkpt lat="50.085" lon="3.47608">
        <ele>125.18006134033</ele>
        <time>2020-07-13T09:03:03.609Z</time>
      </trkpt>
      <trkpt lat="50.08506" lon="3.47593">
        <ele>125.7127532959</ele>
        <time>2020-07-13T09:03:06.068Z</time>
      </trkpt>
      <trkpt lat="50.08523" lon="3.47576">
        <ele>126.32464599609</ele>
        <time>2020-07-13T09:03:08.530Z</time>
      </trkpt>
      <trkpt lat="50.0853" lon="3.47582">
        <ele>126.26465606689</ele>
        <time>2020-07-13T09:03:10.993Z</time>
      </trkpt>
      <trkpt lat="50.08564" lon="3.47597">
        <ele>126.06243896484</ele>
        <time>2020-07-13T09:03:13.462Z</time>
      </trkpt>
      <trkpt lat="50.08588" lon="3.47609">
        <ele>125.77449035645</ele>
        <time>2020-07-13T09:03:15.935Z</time>
      </trkpt>
      <trkpt lat="50.08647" lon="3.4763">
        <ele>125.02452850342</ele>
        <time>2020-07-13T09:03:18.417Z</time>
      </trkpt>
      <trkpt lat="50.08685" lon="3.47638">
        <ele>124.13536071777</ele>
        <time>2020-07-13T09:03:20.906Z</time>
      </trkpt>
      <trkpt lat="50.08728" lon="3.47639">
        <ele>123.30941772461</ele>
        <time>2020-07-13T09:03:23.401Z</time>
      </trkpt>
      <trkpt lat="50.0875" lon="3.47638">
        <ele>123.07860565186</ele>
        <time>2020-07-13T09:03:25.900Z</time>
      </trkpt>
      <trkpt lat="50.08785" lon="3.47631">
        <ele>123.24657440186</ele>
        <time>2020-07-13T09:03:28.405Z</time>
      </trkpt>
      <trkpt lat="50.088" lon="3.47627">
        <ele>123.42430114746</ele>
        <time>2020-07-13T09:03:30.912Z</time>
      </trkpt>
      <trkpt lat="50.0883" lon="3.47614">
        <ele>123.28939056396</ele>
        <time>2020-07-13T09:03:33.424Z</time>
      </trkpt>
      <trkpt lat="50.08872" lon="3.47587">
        <ele>122.06642150879</ele>
        <time>2020-07-13T09:03:35.943Z</time>
      </trkpt>
      <trkpt lat="50.08923" lon="3.47561">
        <ele>121</ele>
        <time>2020-07-13T09:03:38.471Z</time>
      </trkpt>
      <trkpt lat="50.08948" lon="3.4755">
        <ele>121</ele>
        <time>2020-07-13T09:03:41.003Z</time>
      </trkpt>
      <trkpt lat="50.08984" lon="3.47531">
        <ele>120.71063232422</ele>
        <time>2020-07-13T09:03:43.541Z</time>
      </trkpt>
      <trkpt lat="50.09027" lon="3.47503">
        <ele>120.51277923584</ele>
        <time>2020-07-13T09:03:46.087Z</time>
      </trkpt>
      <trkpt lat="50.09084" lon="3.4746">
        <ele>121.6749420166</ele>
        <time>2020-07-13T09:03:48.643Z</time>
      </trkpt>
      <trkpt lat="50.09147" lon="3.47414">
        <ele>121.75495147705</ele>
        <time>2020-07-13T09:03:51.210Z</time>
      </trkpt>
      <trkpt lat="50.09171" lon="3.47394">
        <ele>121.46700286865</ele>
        <time>2020-07-13T09:03:53.781Z</time>
      </trkpt>
      <trkpt lat="50.09272" lon="3.47304">
        <ele>120.80184173584</ele>
        <time>2020-07-13T09:03:56.371Z</time>
      </trkpt>
      <trkpt lat="50.09291" lon="3.47286">
        <ele>120.78984069824</ele>
        <time>2020-07-13T09:03:58.965Z</time>
      </trkpt>
      <trkpt lat="50.09315" lon="3.47261">
        <ele>121.06254577637</ele>
        <time>2020-07-13T09:04:01.563Z</time>
      </trkpt>
      <trkpt lat="50.09344" lon="3.47225">
        <ele>121.39134979248</ele>
        <time>2020-07-13T09:04:04.167Z</time>
      </trkpt>
      <trkpt lat="50.09384" lon="3.47165">
        <ele>121.03721618652</ele>
        <time>2020-07-13T09:04:06.780Z</time>
      </trkpt>
      <trkpt lat="50.09396" lon="3.47135">
        <ele>121.10919952393</ele>
        <time>2020-07-13T09:04:09.397Z</time>
      </trkpt>
      <trkpt lat="50.09404" lon="3.4711">
        <ele>121.41996002197</ele>
        <time>2020-07-13T09:04:12.017Z</time>
      </trkpt>
      <trkpt lat="50.09422" lon="3.47031">
        <ele>122.64417266846</ele>
        <time>2020-07-13T09:04:14.645Z</time>
      </trkpt>
      <trkpt lat="50.09433" lon="3.4699">
        <ele>123.62801361084</ele>
        <time>2020-07-13T09:04:17.278Z</time>
      </trkpt>
      <trkpt lat="50.09447" lon="3.46945">
        <ele>125.40618896484</ele>
        <time>2020-07-13T09:04:19.916Z</time>
      </trkpt>
      <trkpt lat="50.09482" lon="3.46862">
        <ele>127.32099914551</ele>
        <time>2020-07-13T09:04:22.564Z</time>
      </trkpt>
      <trkpt lat="50.09526" lon="3.46754">
        <ele>128.70649719238</ele>
        <time>2020-07-13T09:04:25.225Z</time>
      </trkpt>
      <trkpt lat="50.09542" lon="3.46719">
        <ele>128.61270141602</ele>
        <time>2020-07-13T09:04:27.891Z</time>
      </trkpt>
      <trkpt lat="50.09561" lon="3.46686">
        <ele>128.71057128906</ele>
        <time>2020-07-13T09:04:30.561Z</time>
      </trkpt>
      <trkpt lat="50.09577" lon="3.46663">
        <ele>128.83316040039</ele>
        <time>2020-07-13T09:04:33.235Z</time>
      </trkpt>
      <trkpt lat="50.0959" lon="3.46652">
        <ele>128.80917358398</ele>
        <time>2020-07-13T09:04:35.911Z</time>
      </trkpt>
      <trkpt lat="50.09599" lon="3.46646">
        <ele>128.66371154785</ele>
        <time>2020-07-13T09:04:38.589Z</time>
      </trkpt>
      <trkpt lat="50.09621" lon="3.46639">
        <ele>128.13580322266</ele>
        <time>2020-07-13T09:04:41.270Z</time>
      </trkpt>
      <trkpt lat="50.09667" lon="3.46634">
        <ele>128.41470336914</ele>
        <time>2020-07-13T09:04:43.959Z</time>
      </trkpt>
      <trkpt lat="50.09705" lon="3.46631">
        <ele>128.37870788574</ele>
        <time>2020-07-13T09:04:46.654Z</time>
      </trkpt>
      <trkpt lat="50.09721" lon="3.46624">
        <ele>128.4266204834</ele>
        <time>2020-07-13T09:04:49.351Z</time>
      </trkpt>
      <trkpt lat="50.09735" lon="3.46609">
        <ele>128.04440307617</ele>
        <time>2020-07-13T09:04:52.051Z</time>
      </trkpt>
      <trkpt lat="50.09723" lon="3.46578">
        <ele>127.58692169189</ele>
        <time>2020-07-13T09:04:54.755Z</time>
      </trkpt>
      <trkpt lat="50.0972" lon="3.4655">
        <ele>127.2869720459</ele>
        <time>2020-07-13T09:04:57.462Z</time>
      </trkpt>
      <trkpt lat="50.09721" lon="3.46482">
        <ele>125.91822814941</ele>
        <time>2020-07-13T09:05:00.176Z</time>
      </trkpt>
      <trkpt lat="50.0972" lon="3.46454">
        <ele>125.27033233643</ele>
        <time>2020-07-13T09:05:02.893Z</time>
      </trkpt>
      <trkpt lat="50.09703" lon="3.46337">
        <ele>124.08406829834</ele>
        <time>2020-07-13T09:05:05.622Z</time>
      </trkpt>
      <trkpt lat="50.09675" lon="3.46189">
        <ele>124.42001342773</ele>
        <time>2020-07-13T09:05:08.367Z</time>
      </trkpt>
      <trkpt lat="50.09662" lon="3.4613">
        <ele>125.26457214355</ele>
        <time>2020-07-13T09:05:11.118Z</time>
      </trkpt>
      <trkpt lat="50.09647" lon="3.46076">
        <ele>126.28017425537</ele>
        <time>2020-07-13T09:05:13.875Z</time>
      </trkpt>
      <trkpt lat="50.09625" lon="3.46002">
        <ele>127.31614685059</ele>
        <time>2020-07-13T09:05:16.641Z</time>
      </trkpt>
      <trkpt lat="50.09616" lon="3.45967">
        <ele>128.04803466797</ele>
        <time>2020-07-13T09:05:19.411Z</time>
      </trkpt>
      <trkpt lat="50.0961" lon="3.45936">
        <ele>128.71990966797</ele>
        <time>2020-07-13T09:05:22.184Z</time>
      </trkpt>
      <trkpt lat="50.09594" lon="3.45808">
        <ele>130.59944152832</ele>
        <time>2020-07-13T09:05:24.971Z</time>
      </trkpt>
      <trkpt lat="50.09577" lon="3.45673">
        <ele>133.1153717041</ele>
        <time>2020-07-13T09:05:27.772Z</time>
      </trkpt>
      <trkpt lat="50.09571" lon="3.45636">
        <ele>133.5592956543</ele>
        <time>2020-07-13T09:05:30.577Z</time>
      </trkpt>
      <trkpt lat="50.09564" lon="3.45608">
        <ele>133.60833740234</ele>
        <time>2020-07-13T09:05:33.385Z</time>
      </trkpt>
      <trkpt lat="50.09542" lon="3.45543">
        <ele>134.70660400391</ele>
        <time>2020-07-13T09:05:36.200Z</time>
      </trkpt>
      <trkpt lat="50.0952" lon="3.45477">
        <ele>134.62544250488</ele>
        <time>2020-07-13T09:05:39.023Z</time>
      </trkpt>
      <trkpt lat="50.09506" lon="3.45422">
        <ele>133.76847839355</ele>
        <time>2020-07-13T09:05:41.852Z</time>
      </trkpt>
      <trkpt lat="50.09494" lon="3.45368">
        <ele>133.40853881836</ele>
        <time>2020-07-13T09:05:44.687Z</time>
      </trkpt>
      <trkpt lat="50.09484" lon="3.45324">
        <ele>132.21255493164</ele>
        <time>2020-07-13T09:05:47.527Z</time>
      </trkpt>
      <trkpt lat="50.09474" lon="3.45304">
        <ele>131.49267578125</ele>
        <time>2020-07-13T09:05:50.369Z</time>
      </trkpt>
      <trkpt lat="50.09456" lon="3.45275">
        <ele>130.58041381836</ele>
        <time>2020-07-13T09:05:53.215Z</time>
      </trkpt>
      <trkpt lat="50.09419" lon="3.4523">
        <ele>130.18304443359</ele>
        <time>2020-07-13T09:05:56.069Z</time>
      </trkpt>
      <trkpt lat="50.09395" lon="3.45198">
        <ele>129.89508056641</ele>
        <time>2020-07-13T09:05:58.928Z</time>
      </trkpt>
      <trkpt lat="50.09386" lon="3.4518">
        <ele>129.63191223145</ele>
        <time>2020-07-13T09:06:01.789Z</time>
      </trkpt>
      <trkpt lat="50.09363" lon="3.45122">
        <ele>129.60050964355</ele>
        <time>2020-07-13T09:06:04.657Z</time>
      </trkpt>
      <trkpt lat="50.09342" lon="3.45075">
        <ele>129.54051208496</ele>
        <time>2020-07-13T09:06:07.531Z</time>
      </trkpt>
      <trkpt lat="50.09322" lon="3.4504">
        <ele>129.65530395508</ele>
        <time>2020-07-13T09:06:10.410Z</time>
      </trkpt>
      <trkpt lat="50.09283" lon="3.44982">
        <ele>129.87677001953</ele>
        <time>2020-07-13T09:06:13.298Z</time>
      </trkpt>
      <trkpt lat="50.0926" lon="3.44945">
        <ele>129.60081481934</ele>
        <time>2020-07-13T09:06:16.191Z</time>
      </trkpt>
      <trkpt lat="50.09243" lon="3.449">
        <ele>129.39685058594</ele>
        <time>2020-07-13T09:06:19.089Z</time>
      </trkpt>
      <trkpt lat="50.09221" lon="3.44864">
        <ele>129.13290405273</ele>
        <time>2020-07-13T09:06:21.993Z</time>
      </trkpt>
      <trkpt lat="50.09202" lon="3.44832">
        <ele>129.50643920898</ele>
        <time>2020-07-13T09:06:24.901Z</time>
      </trkpt>
      <trkpt lat="50.09193" lon="3.44807">
        <ele>130.21432495117</ele>
        <time>2020-07-13T09:06:27.812Z</time>
      </trkpt>
      <trkpt lat="50.09184" lon="3.44774">
        <ele>131.11418151855</ele>
        <time>2020-07-13T09:06:30.727Z</time>
      </trkpt>
      <trkpt lat="50.09158" lon="3.44662">
        <ele>133.24534606934</ele>
        <time>2020-07-13T09:06:33.654Z</time>
      </trkpt>
      <trkpt lat="50.09137" lon="3.44577">
        <ele>134.39024353027</ele>
        <time>2020-07-13T09:06:36.590Z</time>
      </trkpt>
      <trkpt lat="50.09125" lon="3.44556">
        <ele>134.49822998047</ele>
        <time>2020-07-13T09:06:39.529Z</time>
      </trkpt>
      <trkpt lat="50.09107" lon="3.44537">
        <ele>134.51022338867</ele>
        <time>2020-07-13T09:06:42.472Z</time>
      </trkpt>
      <trkpt lat="50.09029" lon="3.44457">
        <ele>135.58059692383</ele>
        <time>2020-07-13T09:06:45.430Z</time>
      </trkpt>
      <trkpt lat="50.0901" lon="3.4443">
        <ele>136.42756652832</ele>
        <time>2020-07-13T09:06:48.392Z</time>
      </trkpt>
      <trkpt lat="50.09026" lon="3.44402">
        <ele>136.57154846191</ele>
        <time>2020-07-13T09:06:51.358Z</time>
      </trkpt>
      <trkpt lat="50.09069" lon="3.44329">
        <ele>136.69079589844</ele>
        <time>2020-07-13T09:06:54.334Z</time>
      </trkpt>
      <trkpt lat="50.09077" lon="3.44316">
        <ele>136.59481811523</ele>
        <time>2020-07-13T09:06:57.312Z</time>
      </trkpt>
      <trkpt lat="50.0909" lon="3.44307">
        <ele>136.373046875</ele>
        <time>2020-07-13T09:07:00.292Z</time>
      </trkpt>
      <trkpt lat="50.09128" lon="3.44292">
        <ele>135.31538391113</ele>
        <time>2020-07-13T09:07:03.278Z</time>
      </trkpt>
      <trkpt lat="50.0914" lon="3.4428">
        <ele>135.17141723633</ele>
        <time>2020-07-13T09:07:06.267Z</time>
      </trkpt>
      <trkpt lat="50.09171" lon="3.44195">
        <ele>134.08558654785</ele>
        <time>2020-07-13T09:07:09.266Z</time>
      </trkpt>
      <trkpt lat="50.09175" lon="3.44186">
        <ele>133.88162231445</ele>
        <time>2020-07-13T09:07:12.266Z</time>
      </trkpt>
      <trkpt lat="50.09177" lon="3.44185">
        <ele>133.82164001465</ele>
        <time>2020-07-13T09:07:15.266Z</time>
      </trkpt>
      <trkpt lat="50.09182" lon="3.4418">
        <ele>133.67004394531</ele>
        <time>2020-07-13T09:07:18.267Z</time>
      </trkpt>
      <trkpt lat="50.09185" lon="3.44173">
        <ele>133.5980682373</ele>
        <time>2020-07-13T09:07:21.269Z</time>
      </trkpt>
      <trkpt lat="50.09188" lon="3.44157">
        <ele>133.60868835449</ele>
        <time>2020-07-13T09:07:24.273Z</time>
      </trkpt>
      <trkpt lat="50.09187" lon="3.44139">
        <ele>134.0406036377</ele>
        <time>2020-07-13T09:07:27.279Z</time>
      </trkpt>
      <trkpt lat="50.09195" lon="3.44109">
        <ele>134.76048278809</ele>
        <time>2020-07-13T09:07:30.288Z</time>
      </trkpt>
      <trkpt lat="50.09211" lon="3.44085">
        <ele>135.33639526367</ele>
        <time>2020-07-13T09:07:33.300Z</time>
      </trkpt>
      <trkpt lat="50.09233" lon="3.44053">
        <ele>136.10426330566</ele>
        <time>2020-07-13T09:07:36.317Z</time>
      </trkpt>
      <trkpt lat="50.09244" lon="3.44031">
        <ele>136.40724182129</ele>
        <time>2020-07-13T09:07:39.337Z</time>
      </trkpt>
      <trkpt lat="50.09287" lon="3.43929">
        <ele>136.07524108887</ele>
        <time>2020-07-13T09:07:42.370Z</time>
      </trkpt>
      <trkpt lat="50.09316" lon="3.43859">
        <ele>135.57484436035</ele>
        <time>2020-07-13T09:07:45.411Z</time>
      </trkpt>
      <trkpt lat="50.09404" lon="3.43668">
        <ele>129.6714630127</ele>
        <time>2020-07-13T09:07:48.477Z</time>
      </trkpt>
      <trkpt lat="50.09436" lon="3.43607">
        <ele>128.67182922363</ele>
        <time>2020-07-13T09:07:51.551Z</time>
      </trkpt>
      <trkpt lat="50.09538" lon="3.4343">
        <ele>124.19120788574</ele>
        <time>2020-07-13T09:07:54.649Z</time>
      </trkpt>
      <trkpt lat="50.09598" lon="3.43334">
        <ele>124.49098205566</ele>
        <time>2020-07-13T09:07:57.761Z</time>
      </trkpt>
      <trkpt lat="50.09643" lon="3.43269">
        <ele>123.51641082764</ele>
        <time>2020-07-13T09:08:00.883Z</time>
      </trkpt>
      <trkpt lat="50.09702" lon="3.43197">
        <ele>123.16302490234</ele>
        <time>2020-07-13T09:08:04.017Z</time>
      </trkpt>
      <trkpt lat="50.09744" lon="3.43157">
        <ele>123.10550689697</ele>
        <time>2020-07-13T09:08:07.159Z</time>
      </trkpt>
      <trkpt lat="50.09855" lon="3.43075">
        <ele>121.68801879883</ele>
        <time>2020-07-13T09:08:10.320Z</time>
      </trkpt>
      <trkpt lat="50.09915" lon="3.43031">
        <ele>120.8313293457</ele>
        <time>2020-07-13T09:08:13.492Z</time>
      </trkpt>
      <trkpt lat="50.09947" lon="3.4301">
        <ele>120.90949249268</ele>
        <time>2020-07-13T09:08:16.670Z</time>
      </trkpt>
      <trkpt lat="50.10107" lon="3.42893">
        <ele>119.53018951416</ele>
        <time>2020-07-13T09:08:19.876Z</time>
      </trkpt>
      <trkpt lat="50.10149" lon="3.42859">
        <ele>118.87774658203</ele>
        <time>2020-07-13T09:08:23.089Z</time>
      </trkpt>
      <trkpt lat="50.10175" lon="3.42836">
        <ele>119.46109771729</ele>
        <time>2020-07-13T09:08:26.307Z</time>
      </trkpt>
      <trkpt lat="50.10245" lon="3.4277">
        <ele>120.58015441895</ele>
        <time>2020-07-13T09:08:29.538Z</time>
      </trkpt>
      <trkpt lat="50.10319" lon="3.42683">
        <ele>120.06929016113</ele>
        <time>2020-07-13T09:08:32.784Z</time>
      </trkpt>
      <trkpt lat="50.10362" lon="3.42632">
        <ele>119.73473358154</ele>
        <time>2020-07-13T09:08:36.039Z</time>
      </trkpt>
      <trkpt lat="50.10429" lon="3.42556">
        <ele>118.63369750977</ele>
        <time>2020-07-13T09:08:39.307Z</time>
      </trkpt>
      <trkpt lat="50.1048" lon="3.42497">
        <ele>117.50588226318</ele>
        <time>2020-07-13T09:08:42.585Z</time>
      </trkpt>
      <trkpt lat="50.10532" lon="3.42442">
        <ele>116.2940826416</ele>
        <time>2020-07-13T09:08:45.873Z</time>
      </trkpt>
      <trkpt lat="50.10643" lon="3.42329">
        <ele>113.76331329346</ele>
        <time>2020-07-13T09:08:49.183Z</time>
      </trkpt>
      <trkpt lat="50.10706" lon="3.42265">
        <ele>114.89529418945</ele>
        <time>2020-07-13T09:08:52.505Z</time>
      </trkpt>
      <trkpt lat="50.10725" lon="3.42242">
        <ele>115.28050994873</ele>
        <time>2020-07-13T09:08:55.831Z</time>
      </trkpt>
      <trkpt lat="50.10752" lon="3.42211">
        <ele>115.49816131592</ele>
        <time>2020-07-13T09:08:59.162Z</time>
      </trkpt>
      <trkpt lat="50.10763" lon="3.42194">
        <ele>115.36618804932</ele>
        <time>2020-07-13T09:09:02.495Z</time>
      </trkpt>
      <trkpt lat="50.10777" lon="3.4216">
        <ele>115.72690582275</ele>
        <time>2020-07-13T09:09:05.833Z</time>
      </trkpt>
      <trkpt lat="50.10796" lon="3.42095">
        <ele>117.13346099854</ele>
        <time>2020-07-13T09:09:09.178Z</time>
      </trkpt>
      <trkpt lat="50.10827" lon="3.41834">
        <ele>118.84523773193</ele>
        <time>2020-07-13T09:09:12.550Z</time>
      </trkpt>
      <trkpt lat="50.10844" lon="3.41682">
        <ele>116.39495849609</ele>
        <time>2020-07-13T09:09:15.938Z</time>
      </trkpt>
      <trkpt lat="50.10851" lon="3.41621">
        <ele>115.68963623047</ele>
        <time>2020-07-13T09:09:19.333Z</time>
      </trkpt>
      <trkpt lat="50.10861" lon="3.41568">
        <ele>115.61923217773</ele>
        <time>2020-07-13T09:09:22.733Z</time>
      </trkpt>
      <trkpt lat="50.10878" lon="3.41502">
        <ele>115.73626708984</ele>
        <time>2020-07-13T09:09:26.141Z</time>
      </trkpt>
      <trkpt lat="50.10958" lon="3.4122">
        <ele>114.37779998779</ele>
        <time>2020-07-13T09:09:29.580Z</time>
      </trkpt>
      <trkpt lat="50.11064" lon="3.40847">
        <ele>114.7179107666</ele>
        <time>2020-07-13T09:09:33.061Z</time>
      </trkpt>
      <trkpt lat="50.11095" lon="3.40736">
        <ele>114.50194549561</ele>
        <time>2020-07-13T09:09:36.555Z</time>
      </trkpt>
      <trkpt lat="50.11103" lon="3.40731">
        <ele>114.7299118042</ele>
        <time>2020-07-13T09:09:40.050Z</time>
      </trkpt>
      <trkpt lat="50.11107" lon="3.40723">
        <ele>114.7779006958</ele>
        <time>2020-07-13T09:09:43.546Z</time>
      </trkpt>
      <trkpt lat="50.11108" lon="3.40704">
        <ele>114.5859375</ele>
        <time>2020-07-13T09:09:47.044Z</time>
      </trkpt>
      <trkpt lat="50.11105" lon="3.40687">
        <ele>114.27398681641</ele>
        <time>2020-07-13T09:09:50.544Z</time>
      </trkpt>
      <trkpt lat="50.11106" lon="3.40663">
        <ele>114.47273254395</ele>
        <time>2020-07-13T09:09:54.046Z</time>
      </trkpt>
      <trkpt lat="50.11118" lon="3.40567">
        <ele>115.67931365967</ele>
        <time>2020-07-13T09:09:57.559Z</time>
      </trkpt>
      <trkpt lat="50.11118" lon="3.40556">
        <ele>115.67931365967</ele>
        <time>2020-07-13T09:10:01.073Z</time>
      </trkpt>
      <trkpt lat="50.11114" lon="3.40537">
        <ele>115.53533172607</ele>
        <time>2020-07-13T09:10:04.589Z</time>
      </trkpt>
      <trkpt lat="50.11053" lon="3.40311">
        <ele>110.55563354492</ele>
        <time>2020-07-13T09:10:08.130Z</time>
      </trkpt>
      <trkpt lat="50.11033" lon="3.40239">
        <ele>108.24826049805</ele>
        <time>2020-07-13T09:10:11.679Z</time>
      </trkpt>
      <trkpt lat="50.10983" lon="3.40061">
        <ele>107.17477416992</ele>
        <time>2020-07-13T09:10:15.248Z</time>
      </trkpt>
      <trkpt lat="50.10921" lon="3.39834">
        <ele>113.2398147583</ele>
        <time>2020-07-13T09:10:18.842Z</time>
      </trkpt>
      <trkpt lat="50.10892" lon="3.39736">
        <ele>113.45533752441</ele>
        <time>2020-07-13T09:10:22.448Z</time>
      </trkpt>
      <trkpt lat="50.10872" lon="3.39686">
        <ele>114.11680603027</ele>
        <time>2020-07-13T09:10:26.060Z</time>
      </trkpt>
      <trkpt lat="50.10824" lon="3.39605">
        <ele>114.98368835449</ele>
        <time>2020-07-13T09:10:29.683Z</time>
      </trkpt>
      <trkpt lat="50.10774" lon="3.39505">
        <ele>116.34938049316</ele>
        <time>2020-07-13T09:10:33.319Z</time>
      </trkpt>
      <trkpt lat="50.10662" lon="3.393">
        <ele>117.15532684326</ele>
        <time>2020-07-13T09:10:36.983Z</time>
      </trkpt>
      <trkpt lat="50.10551" lon="3.391">
        <ele>119.66082000732</ele>
        <time>2020-07-13T09:10:40.674Z</time>
      </trkpt>
      <trkpt lat="50.10538" lon="3.39079">
        <ele>120.03276062012</ele>
        <time>2020-07-13T09:10:44.368Z</time>
      </trkpt>
      <trkpt lat="50.10364" lon="3.3883">
        <ele>123.33156585693</ele>
        <time>2020-07-13T09:10:48.100Z</time>
      </trkpt>
      <trkpt lat="50.1021" lon="3.38613">
        <ele>126.36181640625</ele>
        <time>2020-07-13T09:10:51.865Z</time>
      </trkpt>
      <trkpt lat="50.10173" lon="3.38584">
        <ele>127.44163513184</ele>
        <time>2020-07-13T09:10:55.637Z</time>
      </trkpt>
      <trkpt lat="50.10156" lon="3.38566">
        <ele>127.82556915283</ele>
        <time>2020-07-13T09:10:59.412Z</time>
      </trkpt>
      <trkpt lat="50.10142" lon="3.38548">
        <ele>128.06553649902</ele>
        <time>2020-07-13T09:11:03.190Z</time>
      </trkpt>
      <trkpt lat="50.10134" lon="3.38531">
        <ele>128.04153442383</ele>
        <time>2020-07-13T09:11:06.970Z</time>
      </trkpt>
      <trkpt lat="50.10127" lon="3.38506">
        <ele>128.20082092285</ele>
        <time>2020-07-13T09:11:10.753Z</time>
      </trkpt>
      <trkpt lat="50.10118" lon="3.38437">
        <ele>129.970703125</ele>
        <time>2020-07-13T09:11:14.543Z</time>
      </trkpt>
      <trkpt lat="50.10112" lon="3.38409">
        <ele>130.26884460449</ele>
        <time>2020-07-13T09:11:18.336Z</time>
      </trkpt>
      <trkpt lat="50.10122" lon="3.38376">
        <ele>130.66477966309</ele>
        <time>2020-07-13T09:11:22.133Z</time>
      </trkpt>
      <trkpt lat="50.10147" lon="3.38292">
        <ele>133.01783752441</ele>
        <time>2020-07-13T09:11:25.940Z</time>
      </trkpt>
      <trkpt lat="50.10158" lon="3.38246">
        <ele>134.29853820801</ele>
        <time>2020-07-13T09:11:29.752Z</time>
      </trkpt>
      <trkpt lat="50.10171" lon="3.38176">
        <ele>135.93800354004</ele>
        <time>2020-07-13T09:11:33.571Z</time>
      </trkpt>
      <trkpt lat="50.1018" lon="3.38128">
        <ele>135.44277954102</ele>
        <time>2020-07-13T09:11:37.395Z</time>
      </trkpt>
      <trkpt lat="50.10183" lon="3.38091">
        <ele>134.97508239746</ele>
        <time>2020-07-13T09:11:41.223Z</time>
      </trkpt>
      <trkpt lat="50.1018" lon="3.38">
        <ele>135.08306884766</ele>
        <time>2020-07-13T09:11:45.060Z</time>
      </trkpt>
      <trkpt lat="50.10175" lon="3.37981">
        <ele>135.26303100586</ele>
        <time>2020-07-13T09:11:48.900Z</time>
      </trkpt>
      <trkpt lat="50.10149" lon="3.3793">
        <ele>135.93183898926</ele>
        <time>2020-07-13T09:11:52.746Z</time>
      </trkpt>
      <trkpt lat="50.10103" lon="3.37849">
        <ele>137.56973266602</ele>
        <time>2020-07-13T09:11:56.603Z</time>
      </trkpt>
      <trkpt lat="50.10095" lon="3.37829">
        <ele>137.30633544922</ele>
        <time>2020-07-13T09:12:00.463Z</time>
      </trkpt>
      <trkpt lat="50.10081" lon="3.37752">
        <ele>136.24575805664</ele>
        <time>2020-07-13T09:12:04.331Z</time>
      </trkpt>
      <trkpt lat="50.10083" lon="3.37731">
        <ele>135.71784973145</ele>
        <time>2020-07-13T09:12:08.201Z</time>
      </trkpt>
      <trkpt lat="50.10088" lon="3.37717">
        <ele>135.42854309082</ele>
        <time>2020-07-13T09:12:12.073Z</time>
      </trkpt>
      <trkpt lat="50.10097" lon="3.37705">
        <ele>135.28456115723</ele>
        <time>2020-07-13T09:12:15.947Z</time>
      </trkpt>
      <trkpt lat="50.1011" lon="3.37681">
        <ele>134.98643493652</ele>
        <time>2020-07-13T09:12:19.824Z</time>
      </trkpt>
      <trkpt lat="50.10116" lon="3.37654">
        <ele>133.88909912109</ele>
        <time>2020-07-13T09:12:23.704Z</time>
      </trkpt>
      <trkpt lat="50.10118" lon="3.37634">
        <ele>133.19320678711</ele>
        <time>2020-07-13T09:12:27.586Z</time>
      </trkpt>
      <trkpt lat="50.10117" lon="3.376">
        <ele>131.95741271973</ele>
        <time>2020-07-13T09:12:31.472Z</time>
      </trkpt>
      <trkpt lat="50.10109" lon="3.37545">
        <ele>130.30400085449</ele>
        <time>2020-07-13T09:12:35.363Z</time>
      </trkpt>
      <trkpt lat="50.10101" lon="3.37486">
        <ele>128.35327148438</ele>
        <time>2020-07-13T09:12:39.261Z</time>
      </trkpt>
      <trkpt lat="50.10096" lon="3.37438">
        <ele>126.5055770874</ele>
        <time>2020-07-13T09:12:43.164Z</time>
      </trkpt>
      <trkpt lat="50.10091" lon="3.37375">
        <ele>124.54682159424</ele>
        <time>2020-07-13T09:12:47.073Z</time>
      </trkpt>
      <trkpt lat="50.10095" lon="3.37343">
        <ele>123.44300079346</ele>
        <time>2020-07-13T09:12:50.986Z</time>
      </trkpt>
      <trkpt lat="50.10107" lon="3.37344">
        <ele>123.62297058105</ele>
        <time>2020-07-13T09:12:54.900Z</time>
      </trkpt>
      <trkpt lat="50.10119" lon="3.37339">
        <ele>123.58698272705</ele>
        <time>2020-07-13T09:12:58.816Z</time>
      </trkpt>
      <trkpt lat="50.10151" lon="3.37305">
        <ele>122.45608520508</ele>
        <time>2020-07-13T09:13:02.739Z</time>
      </trkpt>
      <trkpt lat="50.10168" lon="3.37286">
        <ele>121.77219390869</ele>
        <time>2020-07-13T09:13:06.665Z</time>
      </trkpt>
      <trkpt lat="50.10217" lon="3.37229">
        <ele>119.63763427734</ele>
        <time>2020-07-13T09:13:10.601Z</time>
      </trkpt>
      <trkpt lat="50.10234" lon="3.3721">
        <ele>118.74977874756</ele>
        <time>2020-07-13T09:13:14.540Z</time>
      </trkpt>
      <trkpt lat="50.10271" lon="3.37179">
        <ele>117.19004058838</ele>
        <time>2020-07-13T09:13:18.486Z</time>
      </trkpt>
      <trkpt lat="50.10347" lon="3.37124">
        <ele>117.19802856445</ele>
        <time>2020-07-13T09:13:22.445Z</time>
      </trkpt>
      <trkpt lat="50.10377" lon="3.37103">
        <ele>118.12352752686</ele>
        <time>2020-07-13T09:13:26.410Z</time>
      </trkpt>
      <trkpt lat="50.10401" lon="3.37073">
        <ele>117.70182800293</ele>
        <time>2020-07-13T09:13:30.380Z</time>
      </trkpt>
      <trkpt lat="50.10428" lon="3.37025">
        <ele>117.12592315674</ele>
        <time>2020-07-13T09:13:34.356Z</time>
      </trkpt>
      <trkpt lat="50.10478" lon="3.36926">
        <ele>114.5193862915</ele>
        <time>2020-07-13T09:13:38.345Z</time>
      </trkpt>
      <trkpt lat="50.10489" lon="3.369">
        <ele>114.2914276123</ele>
        <time>2020-07-13T09:13:42.337Z</time>
      </trkpt>
      <trkpt lat="50.10519" lon="3.36816">
        <ele>113.59226226807</ele>
        <time>2020-07-13T09:13:46.339Z</time>
      </trkpt>
      <trkpt lat="50.10544" lon="3.36755">
        <ele>111.67813873291</ele>
        <time>2020-07-13T09:13:50.349Z</time>
      </trkpt>
      <trkpt lat="50.10574" lon="3.36694">
        <ele>110.77393341064</ele>
        <time>2020-07-13T09:13:54.367Z</time>
      </trkpt>
      <trkpt lat="50.10597" lon="3.36637">
        <ele>110.50997161865</ele>
        <time>2020-07-13T09:13:58.391Z</time>
      </trkpt>
      <trkpt lat="50.10606" lon="3.36601">
        <ele>110.07804870605</ele>
        <time>2020-07-13T09:14:02.419Z</time>
      </trkpt>
      <trkpt lat="50.10612" lon="3.36562">
        <ele>109.60803985596</ele>
        <time>2020-07-13T09:14:06.452Z</time>
      </trkpt>
      <trkpt lat="50.10614" lon="3.3652">
        <ele>108.67219543457</ele>
        <time>2020-07-13T09:14:10.489Z</time>
      </trkpt>
      <trkpt lat="50.10611" lon="3.36387">
        <ele>106.90155029297</ele>
        <time>2020-07-13T09:14:14.540Z</time>
      </trkpt>
      <trkpt lat="50.10611" lon="3.36343">
        <ele>106.31691741943</ele>
        <time>2020-07-13T09:14:18.595Z</time>
      </trkpt>
      <trkpt lat="50.10621" lon="3.36243">
        <ele>104.34716033936</ele>
        <time>2020-07-13T09:14:22.661Z</time>
      </trkpt>
      <trkpt lat="50.1066" lon="3.35944">
        <ele>101.14617919922</ele>
        <time>2020-07-13T09:14:26.758Z</time>
      </trkpt>
      <trkpt lat="50.10674" lon="3.35847">
        <ele>101.25624084473</ele>
        <time>2020-07-13T09:14:30.865Z</time>
      </trkpt>
      <trkpt lat="50.10689" lon="3.35785">
        <ele>100.23712158203</ele>
        <time>2020-07-13T09:14:34.979Z</time>
      </trkpt>
      <trkpt lat="50.10752" lon="3.35583">
        <ele>96.65328216553</ele>
        <time>2020-07-13T09:14:39.116Z</time>
      </trkpt>
      <trkpt lat="50.10774" lon="3.35506">
        <ele>93.33325195312</ele>
        <time>2020-07-13T09:14:43.262Z</time>
      </trkpt>
      <trkpt lat="50.10788" lon="3.35429">
        <ele>93.13247680664</ele>
        <time>2020-07-13T09:14:47.416Z</time>
      </trkpt>
      <trkpt lat="50.10792" lon="3.35393">
        <ele>93.03649139404</ele>
        <time>2020-07-13T09:14:51.574Z</time>
      </trkpt>
      <trkpt lat="50.10812" lon="3.35129">
        <ele>99.46629333496</ele>
        <time>2020-07-13T09:14:55.759Z</time>
      </trkpt>
      <trkpt lat="50.10817" lon="3.35073">
        <ele>100.02494049072</ele>
        <time>2020-07-13T09:14:59.950Z</time>
      </trkpt>
      <trkpt lat="50.10807" lon="3.34937">
        <ele>101.27899932861</ele>
        <time>2020-07-13T09:15:04.155Z</time>
      </trkpt>
      <trkpt lat="50.10803" lon="3.34865">
        <ele>101.5450668335</ele>
        <time>2020-07-13T09:15:08.368Z</time>
      </trkpt>
      <trkpt lat="50.10798" lon="3.34832">
        <ele>101.65307617188</ele>
        <time>2020-07-13T09:15:12.584Z</time>
      </trkpt>
      <trkpt lat="50.10787" lon="3.34802">
        <ele>101.7673034668</ele>
        <time>2020-07-13T09:15:16.804Z</time>
      </trkpt>
      <trkpt lat="50.10775" lon="3.34772">
        <ele>101.98326873779</ele>
        <time>2020-07-13T09:15:21.027Z</time>
      </trkpt>
      <trkpt lat="50.1075" lon="3.3471">
        <ele>103.08864593506</ele>
        <time>2020-07-13T09:15:25.258Z</time>
      </trkpt>
      <trkpt lat="50.10708" lon="3.34613">
        <ele>103.50387573242</ele>
        <time>2020-07-13T09:15:29.501Z</time>
      </trkpt>
      <trkpt lat="50.10673" lon="3.34555">
        <ele>104.72089385986</ele>
        <time>2020-07-13T09:15:33.752Z</time>
      </trkpt>
      <trkpt lat="50.10648" lon="3.34515">
        <ele>105.74072265625</ele>
        <time>2020-07-13T09:15:38.009Z</time>
      </trkpt>
      <trkpt lat="50.10607" lon="3.34428">
        <ele>105.36148071289</ele>
        <time>2020-07-13T09:15:42.277Z</time>
      </trkpt>
      <trkpt lat="50.10596" lon="3.3439">
        <ele>105.2414932251</ele>
        <time>2020-07-13T09:15:46.549Z</time>
      </trkpt>
      <trkpt lat="50.10581" lon="3.34251">
        <ele>104.74911499023</ele>
        <time>2020-07-13T09:15:50.836Z</time>
      </trkpt>
      <trkpt lat="50.10572" lon="3.34168">
        <ele>104.83192443848</ele>
        <time>2020-07-13T09:15:55.131Z</time>
      </trkpt>
      <trkpt lat="50.10563" lon="3.34067">
        <ele>101.73644256592</ele>
        <time>2020-07-13T09:15:59.437Z</time>
      </trkpt>
      <trkpt lat="50.10562" lon="3.34018">
        <ele>100.20700836182</ele>
        <time>2020-07-13T09:16:03.748Z</time>
      </trkpt>
      <trkpt lat="50.10547" lon="3.33951">
        <ele>99.31915283203</ele>
        <time>2020-07-13T09:16:08.066Z</time>
      </trkpt>
      <trkpt lat="50.10542" lon="3.33926">
        <ele>98.9973526001</ele>
        <time>2020-07-13T09:16:12.387Z</time>
      </trkpt>
      <trkpt lat="50.10541" lon="3.33886">
        <ele>98.5534286499</ele>
        <time>2020-07-13T09:16:16.712Z</time>
      </trkpt>
      <trkpt lat="50.10546" lon="3.33866">
        <ele>98.13349914551</ele>
        <time>2020-07-13T09:16:21.039Z</time>
      </trkpt>
      <trkpt lat="50.10554" lon="3.33847">
        <ele>97.75498962402</ele>
        <time>2020-07-13T09:16:25.369Z</time>
      </trkpt>
      <trkpt lat="50.10592" lon="3.33807">
        <ele>97.80297851562</ele>
        <time>2020-07-13T09:16:29.706Z</time>
      </trkpt>
      <trkpt lat="50.10602" lon="3.33794">
        <ele>97.87496948242</ele>
        <time>2020-07-13T09:16:34.045Z</time>
      </trkpt>
      <trkpt lat="50.10606" lon="3.33786">
        <ele>97.97094726562</ele>
        <time>2020-07-13T09:16:38.385Z</time>
      </trkpt>
      <trkpt lat="50.10609" lon="3.33777">
        <ele>98.11492919922</ele>
        <time>2020-07-13T09:16:42.726Z</time>
      </trkpt>
      <trkpt lat="50.1061" lon="3.33757">
        <ele>98.4873046875</ele>
        <time>2020-07-13T09:16:47.069Z</time>
      </trkpt>
      <trkpt lat="50.10596" lon="3.33413">
        <ele>98.73970794678</ele>
        <time>2020-07-13T09:16:51.448Z</time>
      </trkpt>
      <trkpt lat="50.10564" lon="3.33289">
        <ele>98.11035919189</ele>
        <time>2020-07-13T09:16:55.841Z</time>
      </trkpt>
      <trkpt lat="50.10559" lon="3.33277">
        <ele>97.91358184814</ele>
        <time>2020-07-13T09:17:00.235Z</time>
      </trkpt>
      <trkpt lat="50.10553" lon="3.33262">
        <ele>97.61219024658</ele>
        <time>2020-07-13T09:17:04.631Z</time>
      </trkpt>
      <trkpt lat="50.10539" lon="3.33238">
        <ele>97.43272399902</ele>
        <time>2020-07-13T09:17:09.030Z</time>
      </trkpt>
      <trkpt lat="50.10482" lon="3.33154">
        <ele>96.10094451904</ele>
        <time>2020-07-13T09:17:13.442Z</time>
      </trkpt>
      <trkpt lat="50.1044" lon="3.33037">
        <ele>94.76349639893</ele>
        <time>2020-07-13T09:17:17.868Z</time>
      </trkpt>
      <trkpt lat="50.10428" lon="3.32998">
        <ele>94.73755645752</ele>
        <time>2020-07-13T09:17:22.298Z</time>
      </trkpt>
      <trkpt lat="50.10409" lon="3.32914">
        <ele>95.25605773926</ele>
        <time>2020-07-13T09:17:26.737Z</time>
      </trkpt>
      <trkpt lat="50.10382" lon="3.32791">
        <ele>94.46504974365</ele>
        <time>2020-07-13T09:17:31.190Z</time>
      </trkpt>
      <trkpt lat="50.10361" lon="3.32736">
        <ele>93.66649627686</ele>
        <time>2020-07-13T09:17:35.649Z</time>
      </trkpt>
      <trkpt lat="50.1027" lon="3.32508">
        <ele>90</ele>
        <time>2020-07-13T09:17:40.136Z</time>
      </trkpt>
      <trkpt lat="50.10259" lon="3.32477">
        <ele>89.94438934326</ele>
        <time>2020-07-13T09:17:44.626Z</time>
      </trkpt>
      <trkpt lat="50.10207" lon="3.32301">
        <ele>88.34210205078</ele>
        <time>2020-07-13T09:17:49.136Z</time>
      </trkpt>
      <trkpt lat="50.10182" lon="3.32182">
        <ele>84.39584350586</ele>
        <time>2020-07-13T09:17:53.659Z</time>
      </trkpt>
      <trkpt lat="50.10156" lon="3.32076">
        <ele>83.94692230225</ele>
        <time>2020-07-13T09:17:58.194Z</time>
      </trkpt>
      <trkpt lat="50.10137" lon="3.32012">
        <ele>84.48768615723</ele>
        <time>2020-07-13T09:18:02.736Z</time>
      </trkpt>
      <trkpt lat="50.10136" lon="3.31994">
        <ele>84.31970977783</ele>
        <time>2020-07-13T09:18:07.280Z</time>
      </trkpt>
      <trkpt lat="50.10142" lon="3.31937">
        <ele>83.45083618164</ele>
        <time>2020-07-13T09:18:11.830Z</time>
      </trkpt>
      <trkpt lat="50.10148" lon="3.31875">
        <ele>82.57109069824</ele>
        <time>2020-07-13T09:18:16.387Z</time>
      </trkpt>
      <trkpt lat="50.10159" lon="3.31612">
        <ele>82.04521179199</ele>
        <time>2020-07-13T09:18:20.971Z</time>
      </trkpt>
      <trkpt lat="50.10161" lon="3.31542">
        <ele>82.24810028076</ele>
        <time>2020-07-13T09:18:25.562Z</time>
      </trkpt>
      <trkpt lat="50.10158" lon="3.31508">
        <ele>82.55792999268</ele>
        <time>2020-07-13T09:18:30.156Z</time>
      </trkpt>
      <trkpt lat="50.10146" lon="3.3142">
        <ele>81.64608001709</ele>
        <time>2020-07-13T09:18:34.760Z</time>
      </trkpt>
      <trkpt lat="50.10138" lon="3.31382">
        <ele>81.28614044189</ele>
        <time>2020-07-13T09:18:39.368Z</time>
      </trkpt>
      <trkpt lat="50.10126" lon="3.31367">
        <ele>81.24123382568</ele>
        <time>2020-07-13T09:18:43.978Z</time>
      </trkpt>
      <trkpt lat="50.10128" lon="3.31355">
        <ele>81.0821762085</ele>
        <time>2020-07-13T09:18:48.590Z</time>
      </trkpt>
      <trkpt lat="50.10125" lon="3.31289">
        <ele>80.97908782959</ele>
        <time>2020-07-13T09:18:53.208Z</time>
      </trkpt>
      <trkpt lat="50.10124" lon="3.3121">
        <ele>80.93418121338</ele>
        <time>2020-07-13T09:18:57.835Z</time>
      </trkpt>
      <trkpt lat="50.1013" lon="3.31172">
        <ele>81.21561431885</ele>
        <time>2020-07-13T09:19:02.466Z</time>
      </trkpt>
      <trkpt lat="50.10136" lon="3.31152">
        <ele>81.67153930664</ele>
        <time>2020-07-13T09:19:07.099Z</time>
      </trkpt>
      <trkpt lat="50.10148" lon="3.31133">
        <ele>82.33142852783</ele>
        <time>2020-07-13T09:19:11.735Z</time>
      </trkpt>
      <trkpt lat="50.10172" lon="3.3111">
        <ele>84.24172973633</ele>
        <time>2020-07-13T09:19:16.375Z</time>
      </trkpt>
      <trkpt lat="50.10178" lon="3.311">
        <ele>84.96160888672</ele>
        <time>2020-07-13T09:19:21.016Z</time>
      </trkpt>
      <trkpt lat="50.1018" lon="3.3108">
        <ele>85.1948928833</ele>
        <time>2020-07-13T09:19:25.660Z</time>
      </trkpt>
      <trkpt lat="50.10182" lon="3.31024">
        <ele>86.92604064941</ele>
        <time>2020-07-13T09:19:30.309Z</time>
      </trkpt>
      <trkpt lat="50.10179" lon="3.30976">
        <ele>86.0389175415</ele>
        <time>2020-07-13T09:19:34.963Z</time>
      </trkpt>
      <trkpt lat="50.10184" lon="3.30929">
        <ele>84.79490661621</ele>
        <time>2020-07-13T09:19:39.622Z</time>
      </trkpt>
      <trkpt lat="50.10191" lon="3.30904">
        <ele>84.99806213379</ele>
        <time>2020-07-13T09:19:44.284Z</time>
      </trkpt>
      <trkpt lat="50.10196" lon="3.30889">
        <ele>84.99806213379</ele>
        <time>2020-07-13T09:19:48.948Z</time>
      </trkpt>
      <trkpt lat="50.10205" lon="3.30885">
        <ele>85.54997253418</ele>
        <time>2020-07-13T09:19:53.613Z</time>
      </trkpt>
      <trkpt lat="50.10256" lon="3.3086">
        <ele>88.07063293457</ele>
        <time>2020-07-13T09:19:58.287Z</time>
      </trkpt>
      <trkpt lat="50.10286" lon="3.30845">
        <ele>89.48867034912</ele>
        <time>2020-07-13T09:20:02.966Z</time>
      </trkpt>
      <trkpt lat="50.10378" lon="3.30802">
        <ele>94.58138275146</ele>
        <time>2020-07-13T09:20:07.660Z</time>
      </trkpt>
      <trkpt lat="50.10419" lon="3.30777">
        <ele>96.701171875</ele>
        <time>2020-07-13T09:20:12.361Z</time>
      </trkpt>
      <trkpt lat="50.10478" lon="3.30721">
        <ele>100.58139038086</ele>
        <time>2020-07-13T09:20:17.073Z</time>
      </trkpt>
      <trkpt lat="50.10506" lon="3.30693">
        <ele>102.59705352783</ele>
        <time>2020-07-13T09:20:21.791Z</time>
      </trkpt>
      <trkpt lat="50.10616" lon="3.30588">
        <ele>108.48043060303</ele>
        <time>2020-07-13T09:20:26.529Z</time>
      </trkpt>
      <trkpt lat="50.10775" lon="3.30446">
        <ele>113.30223083496</ele>
        <time>2020-07-13T09:20:31.297Z</time>
      </trkpt>
      <trkpt lat="50.10841" lon="3.3039">
        <ele>116.27862548828</ele>
        <time>2020-07-13T09:20:36.077Z</time>
      </trkpt>
      <trkpt lat="50.10975" lon="3.30291">
        <ele>120.33139038086</ele>
        <time>2020-07-13T09:20:40.881Z</time>
      </trkpt>
      <trkpt lat="50.11004" lon="3.3027">
        <ele>120.07942962646</ele>
        <time>2020-07-13T09:20:45.690Z</time>
      </trkpt>
      <trkpt lat="50.11053" lon="3.30246">
        <ele>119.88676452637</ele>
        <time>2020-07-13T09:20:50.507Z</time>
      </trkpt>
      <trkpt lat="50.11162" lon="3.30193">
        <ele>118.15796661377</ele>
        <time>2020-07-13T09:20:55.342Z</time>
      </trkpt>
      <trkpt lat="50.11282" lon="3.30129">
        <ele>114.64225006104</ele>
        <time>2020-07-13T09:21:00.198Z</time>
      </trkpt>
      <trkpt lat="50.11343" lon="3.30096">
        <ele>113.23026275635</ele>
        <time>2020-07-13T09:21:05.064Z</time>
      </trkpt>
      <trkpt lat="50.11408" lon="3.30058">
        <ele>112.55577087402</ele>
        <time>2020-07-13T09:21:09.941Z</time>
      </trkpt>
      <trkpt lat="50.11444" lon="3.30034">
        <ele>112.14319610596</ele>
        <time>2020-07-13T09:21:14.824Z</time>
      </trkpt>
      <trkpt lat="50.11545" lon="3.29956">
        <ele>109.65544128418</ele>
        <time>2020-07-13T09:21:19.725Z</time>
      </trkpt>
      <trkpt lat="50.11696" lon="3.29835">
        <ele>110.31175231934</ele>
        <time>2020-07-13T09:21:24.654Z</time>
      </trkpt>
      <trkpt lat="50.1174" lon="3.29798">
        <ele>109.51605224609</ele>
        <time>2020-07-13T09:21:29.591Z</time>
      </trkpt>
      <trkpt lat="50.11769" lon="3.29772">
        <ele>108.78417205811</ele>
        <time>2020-07-13T09:21:34.533Z</time>
      </trkpt>
      <trkpt lat="50.11804" lon="3.29731">
        <ele>108.38749694824</ele>
        <time>2020-07-13T09:21:39.482Z</time>
      </trkpt>
      <trkpt lat="50.11872" lon="3.29651">
        <ele>108.71307373047</ele>
        <time>2020-07-13T09:21:44.445Z</time>
      </trkpt>
      <trkpt lat="50.11942" lon="3.29573">
        <ele>106.15791320801</ele>
        <time>2020-07-13T09:21:49.421Z</time>
      </trkpt>
      <trkpt lat="50.12068" lon="3.29463">
        <ele>103.10583496094</ele>
        <time>2020-07-13T09:21:54.421Z</time>
      </trkpt>
      <trkpt lat="50.12159" lon="3.29384">
        <ele>100.68315887451</ele>
        <time>2020-07-13T09:21:59.437Z</time>
      </trkpt>
      <trkpt lat="50.12222" lon="3.29324">
        <ele>98.72931671143</ele>
        <time>2020-07-13T09:22:04.465Z</time>
      </trkpt>
      <trkpt lat="50.12285" lon="3.29254">
        <ele>97.09992218018</ele>
        <time>2020-07-13T09:22:09.505Z</time>
      </trkpt>
      <trkpt lat="50.12292" lon="3.29252">
        <ele>96.90795135498</ele>
        <time>2020-07-13T09:22:14.547Z</time>
      </trkpt>
      <trkpt lat="50.1237" lon="3.2917">
        <ele>98.7632598877</ele>
        <time>2020-07-13T09:22:19.604Z</time>
      </trkpt>
      <trkpt lat="50.12375" lon="3.29165">
        <ele>98.6432800293</ele>
        <time>2020-07-13T09:22:24.662Z</time>
      </trkpt>
      <trkpt lat="50.1241" lon="3.2913">
        <ele>97.80341339111</ele>
        <time>2020-07-13T09:22:29.726Z</time>
      </trkpt>
      <trkpt lat="50.12413" lon="3.2912">
        <ele>97.71224212646</ele>
        <time>2020-07-13T09:22:34.791Z</time>
      </trkpt>
      <trkpt lat="50.12468" lon="3.29062">
        <ele>98.2712097168</ele>
        <time>2020-07-13T09:22:39.867Z</time>
      </trkpt>
      <trkpt lat="50.1256" lon="3.28979">
        <ele>100.59001159668</ele>
        <time>2020-07-13T09:22:44.960Z</time>
      </trkpt>
      <trkpt lat="50.12611" lon="3.28932">
        <ele>100.80611419678</ele>
        <time>2020-07-13T09:22:50.063Z</time>
      </trkpt>
      <trkpt lat="50.12839" lon="3.28727">
        <ele>104.45833587646</ele>
        <time>2020-07-13T09:22:55.208Z</time>
      </trkpt>
      <trkpt lat="50.12921" lon="3.28655">
        <ele>102.35431671143</ele>
        <time>2020-07-13T09:23:00.368Z</time>
      </trkpt>
      <trkpt lat="50.12942" lon="3.28631">
        <ele>101.27449798584</ele>
        <time>2020-07-13T09:23:05.532Z</time>
      </trkpt>
      <trkpt lat="50.13035" lon="3.285">
        <ele>95.84909057617</ele>
        <time>2020-07-13T09:23:10.716Z</time>
      </trkpt>
      <trkpt lat="50.13185" lon="3.28289">
        <ele>94.45176696777</ele>
        <time>2020-07-13T09:23:15.933Z</time>
      </trkpt>
      <trkpt lat="50.13286" lon="3.28149">
        <ele>100</ele>
        <time>2020-07-13T09:23:21.171Z</time>
      </trkpt>
      <trkpt lat="50.13303" lon="3.28125">
        <ele>100.10873413086</ele>
        <time>2020-07-13T09:23:26.413Z</time>
      </trkpt>
      <trkpt lat="50.13403" lon="3.28006">
        <ele>98.77551269531</ele>
        <time>2020-07-13T09:23:31.675Z</time>
      </trkpt>
      <trkpt lat="50.13571" lon="3.27815">
        <ele>96.62433624268</ele>
        <time>2020-07-13T09:23:36.970Z</time>
      </trkpt>
      <trkpt lat="50.13789" lon="3.27575">
        <ele>90.06023406982</ele>
        <time>2020-07-13T09:23:42.308Z</time>
      </trkpt>
      <trkpt lat="50.13978" lon="3.2737">
        <ele>89.20738220215</ele>
        <time>2020-07-13T09:23:47.683Z</time>
      </trkpt>
      <trkpt lat="50.14031" lon="3.27315">
        <ele>91.43588256836</ele>
        <time>2020-07-13T09:23:53.068Z</time>
      </trkpt>
      <trkpt lat="50.14062" lon="3.27287">
        <ele>92.20599365234</ele>
        <time>2020-07-13T09:23:58.459Z</time>
      </trkpt>
      <trkpt lat="50.14091" lon="3.27269">
        <ele>92.28998565674</ele>
        <time>2020-07-13T09:24:03.855Z</time>
      </trkpt>
      <trkpt lat="50.14114" lon="3.27258">
        <ele>92.27798461914</ele>
        <time>2020-07-13T09:24:09.255Z</time>
      </trkpt>
      <trkpt lat="50.14146" lon="3.27249">
        <ele>92.38957977295</ele>
        <time>2020-07-13T09:24:14.660Z</time>
      </trkpt>
      <trkpt lat="50.14172" lon="3.27245">
        <ele>92.74951934814</ele>
        <time>2020-07-13T09:24:20.069Z</time>
      </trkpt>
      <trkpt lat="50.14213" lon="3.27247">
        <ele>92.91925811768</ele>
        <time>2020-07-13T09:24:25.485Z</time>
      </trkpt>
      <trkpt lat="50.14247" lon="3.27244">
        <ele>91.6954574585</ele>
        <time>2020-07-13T09:24:30.906Z</time>
      </trkpt>
      <trkpt lat="50.14274" lon="3.27238">
        <ele>90.66632080078</ele>
        <time>2020-07-13T09:24:36.332Z</time>
      </trkpt>
      <trkpt lat="50.14316" lon="3.27222">
        <ele>88.98410797119</ele>
        <time>2020-07-13T09:24:41.765Z</time>
      </trkpt>
      <trkpt lat="50.1434" lon="3.27209">
        <ele>88.84355926514</ele>
        <time>2020-07-13T09:24:47.202Z</time>
      </trkpt>
      <trkpt lat="50.14366" lon="3.27188">
        <ele>89.65942382812</ele>
        <time>2020-07-13T09:24:52.643Z</time>
      </trkpt>
      <trkpt lat="50.14393" lon="3.27161">
        <ele>90.03579711914</ele>
        <time>2020-07-13T09:24:58.089Z</time>
      </trkpt>
      <trkpt lat="50.1442" lon="3.27128">
        <ele>89.97899627686</ele>
        <time>2020-07-13T09:25:03.541Z</time>
      </trkpt>
      <trkpt lat="50.14448" lon="3.27077">
        <ele>89.30711364746</ele>
        <time>2020-07-13T09:25:09.000Z</time>
      </trkpt>
      <trkpt lat="50.14453" lon="3.27072">
        <ele>89.18713378906</ele>
        <time>2020-07-13T09:25:14.460Z</time>
      </trkpt>
      <trkpt lat="50.14474" lon="3.27028">
        <ele>88.68321228027</ele>
        <time>2020-07-13T09:25:19.925Z</time>
      </trkpt>
      <trkpt lat="50.14501" lon="3.26977">
        <ele>89.42998504639</ele>
        <time>2020-07-13T09:25:25.397Z</time>
      </trkpt>
      <trkpt lat="50.14515" lon="3.26955">
        <ele>89.0054397583</ele>
        <time>2020-07-13T09:25:30.872Z</time>
      </trkpt>
      <trkpt lat="50.14537" lon="3.26925">
        <ele>88.17147064209</ele>
        <time>2020-07-13T09:25:36.352Z</time>
      </trkpt>
      <trkpt lat="50.14542" lon="3.26918">
        <ele>88.05149078369</ele>
        <time>2020-07-13T09:25:41.833Z</time>
      </trkpt>
      <trkpt lat="50.14539" lon="3.26909">
        <ele>88.12347412109</ele>
        <time>2020-07-13T09:25:47.315Z</time>
      </trkpt>
      <trkpt lat="50.14527" lon="3.26883">
        <ele>88.41143035889</ele>
        <time>2020-07-13T09:25:52.801Z</time>
      </trkpt>
      <trkpt lat="50.14515" lon="3.26866">
        <ele>88.69937896729</ele>
        <time>2020-07-13T09:25:58.289Z</time>
      </trkpt>
      <trkpt lat="50.14489" lon="3.26802">
        <ele>89.85291290283</ele>
        <time>2020-07-13T09:26:03.785Z</time>
      </trkpt>
      <trkpt lat="50.14445" lon="3.26691">
        <ele>91.86141204834</ele>
        <time>2020-07-13T09:26:09.294Z</time>
      </trkpt>
      <trkpt lat="50.1442" lon="3.26629">
        <ele>93.21057891846</ele>
        <time>2020-07-13T09:26:14.811Z</time>
      </trkpt>
      <trkpt lat="50.14401" lon="3.26577">
        <ele>94.22918701172</ele>
        <time>2020-07-13T09:26:20.334Z</time>
      </trkpt>
      <trkpt lat="50.14397" lon="3.26553">
        <ele>94.51713562012</ele>
        <time>2020-07-13T09:26:25.860Z</time>
      </trkpt>
      <trkpt lat="50.14397" lon="3.26523">
        <ele>94.9887008667</ele>
        <time>2020-07-13T09:26:31.389Z</time>
      </trkpt>
      <trkpt lat="50.144" lon="3.26496">
        <ele>95.27053833008</ele>
        <time>2020-07-13T09:26:36.921Z</time>
      </trkpt>
      <trkpt lat="50.14408" lon="3.26459">
        <ele>95.36652374268</ele>
        <time>2020-07-13T09:26:42.457Z</time>
      </trkpt>
      <trkpt lat="50.1444" lon="3.26345">
        <ele>95.73773956299</ele>
        <time>2020-07-13T09:26:48.005Z</time>
      </trkpt>
      <trkpt lat="50.14452" lon="3.26295">
        <ele>95.78887176514</ele>
        <time>2020-07-13T09:26:53.559Z</time>
      </trkpt>
      <trkpt lat="50.14468" lon="3.26182">
        <ele>95.88198852539</ele>
        <time>2020-07-13T09:26:59.125Z</time>
      </trkpt>
      <trkpt lat="50.14487" lon="3.2604">
        <ele>96</ele>
        <time>2020-07-13T09:27:04.706Z</time>
      </trkpt>
      <trkpt lat="50.14494" lon="3.2601">
        <ele>95.90383911133</ele>
        <time>2020-07-13T09:27:10.290Z</time>
      </trkpt>
      <trkpt lat="50.14503" lon="3.25986">
        <ele>95.03998565674</ele>
        <time>2020-07-13T09:27:15.877Z</time>
      </trkpt>
      <trkpt lat="50.14512" lon="3.25969">
        <ele>94.56637573242</ele>
        <time>2020-07-13T09:27:21.466Z</time>
      </trkpt>
      <trkpt lat="50.14542" lon="3.25931">
        <ele>94.01446533203</ele>
        <time>2020-07-13T09:27:27.061Z</time>
      </trkpt>
      <trkpt lat="50.14596" lon="3.2586">
        <ele>93.41254425049</ele>
        <time>2020-07-13T09:27:32.668Z</time>
      </trkpt>
      <trkpt lat="50.14626" lon="3.25815">
        <ele>93.23876190186</ele>
        <time>2020-07-13T09:27:38.281Z</time>
      </trkpt>
      <trkpt lat="50.1465" lon="3.25767">
        <ele>92.37490844727</ele>
        <time>2020-07-13T09:27:43.901Z</time>
      </trkpt>
      <trkpt lat="50.14674" lon="3.2572">
        <ele>92.04651641846</ele>
        <time>2020-07-13T09:27:49.527Z</time>
      </trkpt>
      <trkpt lat="50.14715" lon="3.25664">
        <ele>91.68318939209</ele>
        <time>2020-07-13T09:27:55.161Z</time>
      </trkpt>
      <trkpt lat="50.14766" lon="3.25597">
        <ele>90.6873550415</ele>
        <time>2020-07-13T09:28:00.806Z</time>
      </trkpt>
      <trkpt lat="50.14783" lon="3.25573">
        <ele>90.45636749268</ele>
        <time>2020-07-13T09:28:06.455Z</time>
      </trkpt>
      <trkpt lat="50.14808" lon="3.2553">
        <ele>90.20890808105</ele>
        <time>2020-07-13T09:28:12.110Z</time>
      </trkpt>
      <trkpt lat="50.14824" lon="3.25499">
        <ele>89.83696746826</ele>
        <time>2020-07-13T09:28:17.769Z</time>
      </trkpt>
      <trkpt lat="50.14832" lon="3.25477">
        <ele>89.57301330566</ele>
        <time>2020-07-13T09:28:23.430Z</time>
      </trkpt>
      <trkpt lat="50.14843" lon="3.25433">
        <ele>89.04509735107</ele>
        <time>2020-07-13T09:28:29.096Z</time>
      </trkpt>
      <trkpt lat="50.14846" lon="3.25395">
        <ele>89</ele>
        <time>2020-07-13T09:28:34.766Z</time>
      </trkpt>
      <trkpt lat="50.14848" lon="3.25298">
        <ele>88.6456451416</ele>
        <time>2020-07-13T09:28:40.446Z</time>
      </trkpt>
      <trkpt lat="50.14851" lon="3.25263">
        <ele>88.681640625</ele>
        <time>2020-07-13T09:28:46.130Z</time>
      </trkpt>
      <trkpt lat="50.14856" lon="3.25239">
        <ele>88.483253479</ele>
        <time>2020-07-13T09:28:51.817Z</time>
      </trkpt>
      <trkpt lat="50.14869" lon="3.252">
        <ele>88.7952041626</ele>
        <time>2020-07-13T09:28:57.508Z</time>
      </trkpt>
      <trkpt lat="50.14884" lon="3.25165">
        <ele>88.82963562012</ele>
        <time>2020-07-13T09:29:03.203Z</time>
      </trkpt>
      <trkpt lat="50.14926" lon="3.25073">
        <ele>87.72582244873</ele>
        <time>2020-07-13T09:29:08.910Z</time>
      </trkpt>
      <trkpt lat="50.14973" lon="3.24975">
        <ele>86.40462493896</ele>
        <time>2020-07-13T09:29:14.630Z</time>
      </trkpt>
      <trkpt lat="50.15022" lon="3.24897">
        <ele>85.26670074463</ele>
        <time>2020-07-13T09:29:20.361Z</time>
      </trkpt>
      <trkpt lat="50.1505" lon="3.24856">
        <ele>84.93075561523</ele>
        <time>2020-07-13T09:29:26.098Z</time>
      </trkpt>
      <trkpt lat="50.15075" lon="3.24834">
        <ele>84.26161956787</ele>
        <time>2020-07-13T09:29:31.840Z</time>
      </trkpt>
      <trkpt lat="50.1511" lon="3.24815">
        <ele>83.58054351807</ele>
        <time>2020-07-13T09:29:37.587Z</time>
      </trkpt>
      <trkpt lat="50.15183" lon="3.24793">
        <ele>82.67005157471</ele>
        <time>2020-07-13T09:29:43.346Z</time>
      </trkpt>
      <trkpt lat="50.15212" lon="3.24788">
        <ele>81.97416687012</ele>
        <time>2020-07-13T09:29:49.110Z</time>
      </trkpt>
      <trkpt lat="50.15339" lon="3.24778">
        <ele>77.22617340088</ele>
        <time>2020-07-13T09:29:54.894Z</time>
      </trkpt>
      <trkpt lat="50.15376" lon="3.24775">
        <ele>75.37847900391</ele>
        <time>2020-07-13T09:30:00.684Z</time>
      </trkpt>
      <trkpt lat="50.15402" lon="3.24769">
        <ele>74.27925109863</ele>
        <time>2020-07-13T09:30:06.479Z</time>
      </trkpt>
      <trkpt lat="50.15441" lon="3.24756">
        <ele>72.56352996826</ele>
        <time>2020-07-13T09:30:12.280Z</time>
      </trkpt>
      <trkpt lat="50.15456" lon="3.24748">
        <ele>71.94561004639</ele>
        <time>2020-07-13T09:30:18.084Z</time>
      </trkpt>
      <trkpt lat="50.1553" lon="3.24691">
        <ele>71</ele>
        <time>2020-07-13T09:30:23.901Z</time>
      </trkpt>
      <trkpt lat="50.15579" lon="3.24653">
        <ele>70.06478881836</ele>
        <time>2020-07-13T09:30:29.727Z</time>
      </trkpt>
      <trkpt lat="50.15609" lon="3.24627">
        <ele>68.8955078125</ele>
        <time>2020-07-13T09:30:35.558Z</time>
      </trkpt>
      <trkpt lat="50.15648" lon="3.24586">
        <ele>67.51190948486</ele>
        <time>2020-07-13T09:30:41.397Z</time>
      </trkpt>
      <trkpt lat="50.15715" lon="3.24511">
        <ele>65.82540893555</ele>
        <time>2020-07-13T09:30:47.249Z</time>
      </trkpt>
      <trkpt lat="50.15744" lon="3.24485">
        <ele>64.74559020996</ele>
        <time>2020-07-13T09:30:53.106Z</time>
      </trkpt>
      <trkpt lat="50.15812" lon="3.24434">
        <ele>62.57656478882</ele>
        <time>2020-07-13T09:30:58.975Z</time>
      </trkpt>
      <trkpt lat="50.15875" lon="3.24388">
        <ele>61.09722900391</ele>
        <time>2020-07-13T09:31:04.855Z</time>
      </trkpt>
      <trkpt lat="50.15954" lon="3.24335">
        <ele>58.38240432739</ele>
        <time>2020-07-13T09:31:10.749Z</time>
      </trkpt>
      <trkpt lat="50.161" lon="3.2424">
        <ele>56.33285903931</ele>
        <time>2020-07-13T09:31:16.668Z</time>
      </trkpt>
      <trkpt lat="50.16198" lon="3.24162">
        <ele>54.67552185059</ele>
        <time>2020-07-13T09:31:22.605Z</time>
      </trkpt>
      <trkpt lat="50.16238" lon="3.24124">
        <ele>54.98314666748</ele>
        <time>2020-07-13T09:31:28.550Z</time>
      </trkpt>
      <trkpt lat="50.16242" lon="3.24118">
        <ele>54.89687347412</ele>
        <time>2020-07-13T09:31:34.496Z</time>
      </trkpt>
      <trkpt lat="50.16243" lon="3.24118">
        <ele>54.88487625122</ele>
        <time>2020-07-13T09:31:40.442Z</time>
      </trkpt>
      <trkpt lat="50.16245" lon="3.24118">
        <ele>54.86087799072</ele>
        <time>2020-07-13T09:31:46.388Z</time>
      </trkpt>
      <trkpt lat="50.16248" lon="3.24117">
        <ele>54.81288909912</ele>
        <time>2020-07-13T09:31:52.334Z</time>
      </trkpt>
      <trkpt lat="50.16251" lon="3.24109">
        <ele>54.68090820312</ele>
        <time>2020-07-13T09:31:58.281Z</time>
      </trkpt>
      <trkpt lat="50.16251" lon="3.24104">
        <ele>54.62091827393</ele>
        <time>2020-07-13T09:32:04.229Z</time>
      </trkpt>
      <trkpt lat="50.16251" lon="3.24103">
        <ele>54.60892105103</ele>
        <time>2020-07-13T09:32:10.177Z</time>
      </trkpt>
      <trkpt lat="50.16285" lon="3.24083">
        <ele>54.18748855591</ele>
        <time>2020-07-13T09:32:16.131Z</time>
      </trkpt>
      <trkpt lat="50.16427" lon="3.2398">
        <ele>53</ele>
        <time>2020-07-13T09:32:22.110Z</time>
      </trkpt>
      <trkpt lat="50.16575" lon="3.23878">
        <ele>54.73238372803</ele>
        <time>2020-07-13T09:32:28.115Z</time>
      </trkpt>
      <trkpt lat="50.16663" lon="3.23815">
        <ele>56.8440322876</ele>
        <time>2020-07-13T09:32:34.135Z</time>
      </trkpt>
      <trkpt lat="50.16683" lon="3.23801">
        <ele>56.92873001099</ele>
        <time>2020-07-13T09:32:40.159Z</time>
      </trkpt>
      <trkpt lat="50.167" lon="3.23795">
        <ele>56.78475189209</ele>
        <time>2020-07-13T09:32:46.186Z</time>
      </trkpt>
      <trkpt lat="50.16708" lon="3.23794">
        <ele>56.76075744629</ele>
        <time>2020-07-13T09:32:52.214Z</time>
      </trkpt>
      <trkpt lat="50.1671" lon="3.23797">
        <ele>56.83274459839</ele>
        <time>2020-07-13T09:32:58.242Z</time>
      </trkpt>
      <trkpt lat="50.16713" lon="3.238">
        <ele>56.97047805786</ele>
        <time>2020-07-13T09:33:04.271Z</time>
      </trkpt>
      <trkpt lat="50.16721" lon="3.23804">
        <ele>57.35441589355</ele>
        <time>2020-07-13T09:33:10.301Z</time>
      </trkpt>
      <trkpt lat="50.16729" lon="3.23803">
        <ele>57.61837005615</ele>
        <time>2020-07-13T09:33:16.333Z</time>
      </trkpt>
      <trkpt lat="50.16739" lon="3.23796">
        <ele>57.81033706665</ele>
        <time>2020-07-13T09:33:22.366Z</time>
      </trkpt>
      <trkpt lat="50.16747" lon="3.23779">
        <ele>57.69035720825</ele>
        <time>2020-07-13T09:33:28.402Z</time>
      </trkpt>
      <trkpt lat="50.16748" lon="3.23765">
        <ele>57.39040756226</ele>
        <time>2020-07-13T09:33:34.439Z</time>
      </trkpt>
      <trkpt lat="50.16746" lon="3.23754">
        <ele>57.15400695801</ele>
        <time>2020-07-13T09:33:40.477Z</time>
      </trkpt>
      <trkpt lat="50.16742" lon="3.23742">
        <ele>56.86605453491</ele>
        <time>2020-07-13T09:33:46.517Z</time>
      </trkpt>
      <trkpt lat="50.16737" lon="3.23735">
        <ele>56.60209655762</ele>
        <time>2020-07-13T09:33:52.558Z</time>
      </trkpt>
      <trkpt lat="50.16734" lon="3.23733">
        <ele>56.47011947632</ele>
        <time>2020-07-13T09:33:58.599Z</time>
      </trkpt>
      <trkpt lat="50.16732" lon="3.23732">
        <ele>56.38613510132</ele>
        <time>2020-07-13T09:34:04.641Z</time>
      </trkpt>
      <trkpt lat="50.16736" lon="3.23723">
        <ele>56.42212677002</ele>
        <time>2020-07-13T09:34:10.684Z</time>
      </trkpt>
      <trkpt lat="50.16746" lon="3.23685">
        <ele>55.9808921814</ele>
        <time>2020-07-13T09:34:16.731Z</time>
      </trkpt>
      <trkpt lat="50.16752" lon="3.23666">
        <ele>56.29040527344</ele>
        <time>2020-07-13T09:34:22.780Z</time>
      </trkpt>
      <trkpt lat="50.1679" lon="3.23592">
        <ele>56.09745788574</ele>
        <time>2020-07-13T09:34:28.839Z</time>
      </trkpt>
      <trkpt lat="50.16854" lon="3.23466">
        <ele>54.01776885986</ele>
        <time>2020-07-13T09:34:34.914Z</time>
      </trkpt>
      <trkpt lat="50.16857" lon="3.23467">
        <ele>53.95777893066</ele>
        <time>2020-07-13T09:34:40.990Z</time>
      </trkpt>
      <trkpt lat="50.16862" lon="3.23467">
        <ele>53.83779907227</ele>
        <time>2020-07-13T09:34:47.067Z</time>
      </trkpt>
      <trkpt lat="50.16868" lon="3.23457">
        <ele>53.57384109497</ele>
        <time>2020-07-13T09:34:53.145Z</time>
      </trkpt>
      <trkpt lat="50.16948" lon="3.23291">
        <ele>54</ele>
        <time>2020-07-13T09:34:59.244Z</time>
      </trkpt>
      <trkpt lat="50.17016" lon="3.2316">
        <ele>52.70713424683</ele>
        <time>2020-07-13T09:35:05.361Z</time>
      </trkpt>
      <trkpt lat="50.1703" lon="3.23128">
        <ele>52.48388290405</ele>
        <time>2020-07-13T09:35:11.482Z</time>
      </trkpt>
      <trkpt lat="50.17047" lon="3.23095">
        <ele>52</ele>
        <time>2020-07-13T09:35:17.607Z</time>
      </trkpt>
      <trkpt lat="50.17047" lon="3.23087">
        <ele>52</ele>
        <time>2020-07-13T09:35:23.733Z</time>
      </trkpt>
      <trkpt lat="50.17045" lon="3.23079">
        <ele>52</ele>
        <time>2020-07-13T09:35:29.860Z</time>
      </trkpt>
      <trkpt lat="50.17041" lon="3.23073">
        <ele>52.29918289185</ele>
        <time>2020-07-13T09:35:35.988Z</time>
      </trkpt>
      <trkpt lat="50.17038" lon="3.23072">
        <ele>52.55114364624</ele>
        <time>2020-07-13T09:35:42.116Z</time>
      </trkpt>
      <trkpt lat="50.17031" lon="3.23073">
        <ele>53.13904571533</ele>
        <time>2020-07-13T09:35:48.245Z</time>
      </trkpt>
      <trkpt lat="50.17022" lon="3.23087">
        <ele>53.55792999268</ele>
        <time>2020-07-13T09:35:54.376Z</time>
      </trkpt>
      <trkpt lat="50.17014" lon="3.23104">
        <ele>53.73167419434</ele>
        <time>2020-07-13T09:36:00.509Z</time>
      </trkpt>
      <trkpt lat="50.17002" lon="3.23102">
        <ele>54.47555160522</ele>
        <time>2020-07-13T09:36:06.644Z</time>
      </trkpt>
      <trkpt lat="50.16994" lon="3.23098">
        <ele>55.00346374512</ele>
        <time>2020-07-13T09:36:12.781Z</time>
      </trkpt>
      <trkpt lat="50.16976" lon="3.23086">
        <ele>56.34146499634</ele>
        <time>2020-07-13T09:36:18.921Z</time>
      </trkpt>
      <trkpt lat="50.16962" lon="3.23085">
        <ele>57.20532226562</ele>
        <time>2020-07-13T09:36:25.063Z</time>
      </trkpt>
      <trkpt lat="50.16918" lon="3.23061">
        <ele>56.89566040039</ele>
        <time>2020-07-13T09:36:31.213Z</time>
      </trkpt>
      <trkpt lat="50.16905" lon="3.22979">
        <ele>57.2530708313</ele>
        <time>2020-07-13T09:36:37.371Z</time>
      </trkpt>
      <trkpt lat="50.16888" lon="3.22889">
        <ele>55.64375305176</ele>
        <time>2020-07-13T09:36:43.539Z</time>
      </trkpt>
      <trkpt lat="50.16886" lon="3.22855">
        <ele>55.21182632446</ele>
        <time>2020-07-13T09:36:49.710Z</time>
      </trkpt>
      <trkpt lat="50.1693" lon="3.22744">
        <ele>53.15699768066</ele>
        <time>2020-07-13T09:36:55.895Z</time>
      </trkpt>
      <trkpt lat="50.16964" lon="3.22656">
        <ele>49.69324111938</ele>
        <time>2020-07-13T09:37:02.090Z</time>
      </trkpt>
      <trkpt lat="50.16971" lon="3.22643">
        <ele>49.45328140259</ele>
        <time>2020-07-13T09:37:08.287Z</time>
      </trkpt>
      <trkpt lat="50.16973" lon="3.22644">
        <ele>49.44128417969</ele>
        <time>2020-07-13T09:37:14.484Z</time>
      </trkpt>
      <trkpt lat="50.16975" lon="3.22644">
        <ele>49.41728591919</ele>
        <time>2020-07-13T09:37:20.682Z</time>
      </trkpt>
      <trkpt lat="50.16977" lon="3.22643">
        <ele>49.38129425049</ele>
        <time>2020-07-13T09:37:26.880Z</time>
      </trkpt>
      <trkpt lat="50.16982" lon="3.22636">
        <ele>49.23731613159</ele>
        <time>2020-07-13T09:37:33.079Z</time>
      </trkpt>
      <trkpt lat="50.16983" lon="3.22628">
        <ele>49.12933349609</ele>
        <time>2020-07-13T09:37:39.279Z</time>
      </trkpt>
      <trkpt lat="50.1698" lon="3.22621">
        <ele>49.08134460449</ele>
        <time>2020-07-13T09:37:45.480Z</time>
      </trkpt>
      <trkpt lat="50.16979" lon="3.22619">
        <ele>49.06934356689</ele>
        <time>2020-07-13T09:37:51.681Z</time>
      </trkpt>
      <trkpt lat="50.16976" lon="3.22617">
        <ele>49.08134460449</ele>
        <time>2020-07-13T09:37:57.883Z</time>
      </trkpt>
      <trkpt lat="50.16971" lon="3.22576">
        <ele>48.7652015686</ele>
        <time>2020-07-13T09:38:04.089Z</time>
      </trkpt>
      <trkpt lat="50.1695" lon="3.22453">
        <ele>48.56017684937</ele>
        <time>2020-07-13T09:38:10.308Z</time>
      </trkpt>
      <trkpt lat="50.1692" lon="3.22325">
        <ele>48.49962997437</ele>
        <time>2020-07-13T09:38:16.541Z</time>
      </trkpt>
      <trkpt lat="50.16894" lon="3.22178">
        <ele>46.81483840942</ele>
        <time>2020-07-13T09:38:22.790Z</time>
      </trkpt>
      <trkpt lat="50.16886" lon="3.2214">
        <ele>47.36674499512</ele>
        <time>2020-07-13T09:38:29.043Z</time>
      </trkpt>
      <trkpt lat="50.16871" lon="3.22113">
        <ele>47.87065887451</ele>
        <time>2020-07-13T09:38:35.300Z</time>
      </trkpt>
      <trkpt lat="50.16835" lon="3.22067">
        <ele>48.17416000366</ele>
        <time>2020-07-13T09:38:41.564Z</time>
      </trkpt>
      <trkpt lat="50.16813" lon="3.21986">
        <ele>48.31200790405</ele>
        <time>2020-07-13T09:38:47.837Z</time>
      </trkpt>
      <trkpt lat="50.16791" lon="3.21924">
        <ele>49.08448028564</ele>
        <time>2020-07-13T09:38:54.117Z</time>
      </trkpt>
      <trkpt lat="50.16764" lon="3.2185">
        <ele>49.73237228394</ele>
        <time>2020-07-13T09:39:00.406Z</time>
      </trkpt>
      <trkpt lat="50.16712" lon="3.2175">
        <ele>50.96033096313</ele>
        <time>2020-07-13T09:39:06.708Z</time>
      </trkpt>
      <trkpt lat="50.16702" lon="3.21721">
        <ele>51.22012710571</ele>
        <time>2020-07-13T09:39:13.014Z</time>
      </trkpt>
      <trkpt lat="50.16683" lon="3.21632">
        <ele>50.89547729492</ele>
        <time>2020-07-13T09:39:19.329Z</time>
      </trkpt>
      <trkpt lat="50.16674" lon="3.21598">
        <ele>50.40356063843</ele>
        <time>2020-07-13T09:39:25.648Z</time>
      </trkpt>
      <trkpt lat="50.1665" lon="3.21532">
        <ele>50.41763687134</ele>
        <time>2020-07-13T09:39:31.975Z</time>
      </trkpt>
      <trkpt lat="50.16633" lon="3.21494">
        <ele>50.53667831421</ele>
        <time>2020-07-13T09:39:38.307Z</time>
      </trkpt>
      <trkpt lat="50.16613" lon="3.21455">
        <ele>50.67282485962</ele>
        <time>2020-07-13T09:39:44.644Z</time>
      </trkpt>
      <trkpt lat="50.16521" lon="3.2128">
        <ele>50.62591171265</ele>
        <time>2020-07-13T09:39:51.004Z</time>
      </trkpt>
      <trkpt lat="50.16389" lon="3.21033">
        <ele>52.35800933838</ele>
        <time>2020-07-13T09:39:57.397Z</time>
      </trkpt>
      <trkpt lat="50.16362" lon="3.20983">
        <ele>51.46461486816</ele>
        <time>2020-07-13T09:40:03.797Z</time>
      </trkpt>
      <trkpt lat="50.16341" lon="3.20868">
        <ele>49.39154815674</ele>
        <time>2020-07-13T09:40:10.209Z</time>
      </trkpt>
      <trkpt lat="50.16322" lon="3.20758">
        <ele>49</ele>
        <time>2020-07-13T09:40:16.633Z</time>
      </trkpt>
      <trkpt lat="50.1631" lon="3.20692">
        <ele>49</ele>
        <time>2020-07-13T09:40:23.064Z</time>
      </trkpt>
      <trkpt lat="50.16301" lon="3.20703">
        <ele>49</ele>
        <time>2020-07-13T09:40:29.497Z</time>
      </trkpt>
      <trkpt lat="50.16284" lon="3.20681">
        <ele>49.12522506714</ele>
        <time>2020-07-13T09:40:35.933Z</time>
      </trkpt>
      <trkpt lat="50.16256" lon="3.20651">
        <ele>49.79050827026</ele>
        <time>2020-07-13T09:40:42.375Z</time>
      </trkpt>
      <trkpt lat="50.16226" lon="3.2062">
        <ele>50.52238464355</ele>
        <time>2020-07-13T09:40:48.823Z</time>
      </trkpt>
      <trkpt lat="50.16214" lon="3.20598">
        <ele>50.93031692505</ele>
        <time>2020-07-13T09:40:55.274Z</time>
      </trkpt>
      <trkpt lat="50.1621" lon="3.20586">
        <ele>51.03923797607</ele>
        <time>2020-07-13T09:41:01.726Z</time>
      </trkpt>
      <trkpt lat="50.16222" lon="3.20561">
        <ele>50.86910247803</ele>
        <time>2020-07-13T09:41:08.181Z</time>
      </trkpt>
      <trkpt lat="50.16242" lon="3.2052">
        <ele>50.62914276123</ele>
        <time>2020-07-13T09:41:14.641Z</time>
      </trkpt>
      <trkpt lat="50.16258" lon="3.20486">
        <ele>50.12817001343</ele>
        <time>2020-07-13T09:41:21.106Z</time>
      </trkpt>
      <trkpt lat="50.16284" lon="3.20443">
        <ele>49.30030441284</ele>
        <time>2020-07-13T09:41:27.577Z</time>
      </trkpt>
      <trkpt lat="50.16256" lon="3.20407">
        <ele>49.46117019653</ele>
        <time>2020-07-13T09:41:34.054Z</time>
      </trkpt>
      <trkpt lat="50.16183" lon="3.20318">
        <ele>51.34809875488</ele>
        <time>2020-07-13T09:41:40.546Z</time>
      </trkpt>
    </trkseg>
  </trk>
</gpx>